<?xml version="1.0" encoding="UTF-8" standalone="no" ?>
<gpx xmlns="http://www.topografix.com/GPX/1/1" xmlns:xsi="http://www.w3.org/2001/XMLSchema-instance" xsi:schemaLocation="http://www.topografix.com/GPX/1/1 http://www.topografix.com/GPX/1/1/gpx.xsd" version="1.1" creator="VisuGPX - https://www.visugpx.com">
  <metadata>
    <name>Le Beaucet</name>
    <desc><![CDATA[Balade entre le Beaucet et St Gens]]></desc>
  </metadata>
  <trk>
    <name><![CDATA[2017-05-08 15:15:22]]></name>
    <trkseg>
      <trkpt lat="43.98309" lon="5.11889">
        <ele>248.16</ele>
        <time>2017-05-08T07:25:05Z</time>
      </trkpt>
      <trkpt lat="43.9831" lon="5.11889">
        <ele>251.52</ele>
        <time>2017-05-08T07:25:25Z</time>
      </trkpt>
      <trkpt lat="43.98311" lon="5.11888">
        <ele>252.48</ele>
        <time>2017-05-08T07:25:47Z</time>
      </trkpt>
      <trkpt lat="43.98311" lon="5.11889">
        <ele>252.96</ele>
        <time>2017-05-08T07:26:06Z</time>
      </trkpt>
      <trkpt lat="43.98313" lon="5.11896">
        <ele>252</ele>
        <time>2017-05-08T07:26:17Z</time>
      </trkpt>
      <trkpt lat="43.98314" lon="5.119">
        <ele>252</ele>
        <time>2017-05-08T07:26:36Z</time>
      </trkpt>
      <trkpt lat="43.98315" lon="5.11899">
        <ele>251.52</ele>
        <time>2017-05-08T07:26:57Z</time>
      </trkpt>
      <trkpt lat="43.98315" lon="5.11899">
        <ele>251.52</ele>
        <time>2017-05-08T07:27:13Z</time>
      </trkpt>
      <trkpt lat="43.98318" lon="5.11898">
        <ele>251.52</ele>
        <time>2017-05-08T07:27:31Z</time>
      </trkpt>
      <trkpt lat="43.98328" lon="5.11898">
        <ele>251.52</ele>
        <time>2017-05-08T07:27:47Z</time>
      </trkpt>
      <trkpt lat="43.98332" lon="5.11899">
        <ele>251.04</ele>
        <time>2017-05-08T07:28:02Z</time>
      </trkpt>
      <trkpt lat="43.98332" lon="5.11897">
        <ele>251.04</ele>
        <time>2017-05-08T07:28:17Z</time>
      </trkpt>
      <trkpt lat="43.98332" lon="5.11901">
        <ele>251.04</ele>
        <time>2017-05-08T07:28:46Z</time>
      </trkpt>
      <trkpt lat="43.98339" lon="5.11906">
        <ele>250.56</ele>
        <time>2017-05-08T07:29:13Z</time>
      </trkpt>
      <trkpt lat="43.98337" lon="5.11918">
        <ele>250.56</ele>
        <time>2017-05-08T07:29:38Z</time>
      </trkpt>
      <trkpt lat="43.98335" lon="5.11921">
        <ele>252</ele>
        <time>2017-05-08T07:29:57Z</time>
      </trkpt>
      <trkpt lat="43.98335" lon="5.11917">
        <ele>252.48</ele>
        <time>2017-05-08T07:30:18Z</time>
      </trkpt>
      <trkpt lat="43.98332" lon="5.11918">
        <ele>252.48</ele>
        <time>2017-05-08T07:30:43Z</time>
      </trkpt>
      <trkpt lat="43.98337" lon="5.11914">
        <ele>252.48</ele>
        <time>2017-05-08T07:30:58Z</time>
      </trkpt>
      <trkpt lat="43.9834" lon="5.11911">
        <ele>252.48</ele>
        <time>2017-05-08T07:31:16Z</time>
      </trkpt>
      <trkpt lat="43.98335" lon="5.1192">
        <ele>251.04</ele>
        <time>2017-05-08T07:31:44Z</time>
      </trkpt>
      <trkpt lat="43.98333" lon="5.11919">
        <ele>251.04</ele>
        <time>2017-05-08T07:32:20Z</time>
      </trkpt>
      <trkpt lat="43.9834" lon="5.11908">
        <ele>251.04</ele>
        <time>2017-05-08T07:32:35Z</time>
      </trkpt>
      <trkpt lat="43.98339" lon="5.11902">
        <ele>250.08</ele>
        <time>2017-05-08T07:32:51Z</time>
      </trkpt>
      <trkpt lat="43.98334" lon="5.11899">
        <ele>250.08</ele>
        <time>2017-05-08T07:33:25Z</time>
      </trkpt>
      <trkpt lat="43.98333" lon="5.11905">
        <ele>251.04</ele>
        <time>2017-05-08T07:33:45Z</time>
      </trkpt>
      <trkpt lat="43.98333" lon="5.11908">
        <ele>252</ele>
        <time>2017-05-08T07:33:59Z</time>
      </trkpt>
      <trkpt lat="43.98346" lon="5.11911">
        <ele>252</ele>
        <time>2017-05-08T07:34:14Z</time>
      </trkpt>
      <trkpt lat="43.98355" lon="5.11909">
        <ele>252.96</ele>
        <time>2017-05-08T07:34:26Z</time>
      </trkpt>
      <trkpt lat="43.9837" lon="5.11906">
        <ele>251.04</ele>
        <time>2017-05-08T07:34:45Z</time>
      </trkpt>
      <trkpt lat="43.98384" lon="5.11904">
        <ele>248.64</ele>
        <time>2017-05-08T07:35:04Z</time>
      </trkpt>
      <trkpt lat="43.98403" lon="5.11905">
        <ele>246.72</ele>
        <time>2017-05-08T07:35:24Z</time>
      </trkpt>
      <trkpt lat="43.98405" lon="5.11906">
        <ele>246.72</ele>
        <time>2017-05-08T07:35:27Z</time>
      </trkpt>
      <trkpt lat="43.98417" lon="5.1191">
        <ele>244.79</ele>
        <time>2017-05-08T07:35:44Z</time>
      </trkpt>
      <trkpt lat="43.98424" lon="5.11898">
        <ele>242.39</ele>
        <time>2017-05-08T07:36:00Z</time>
      </trkpt>
      <trkpt lat="43.98425" lon="5.11883">
        <ele>240.47</ele>
        <time>2017-05-08T07:36:17Z</time>
      </trkpt>
      <trkpt lat="43.98424" lon="5.1187">
        <ele>239.02</ele>
        <time>2017-05-08T07:36:33Z</time>
      </trkpt>
      <trkpt lat="43.98426" lon="5.11862">
        <ele>238.06</ele>
        <time>2017-05-08T07:36:41Z</time>
      </trkpt>
      <trkpt lat="43.98446" lon="5.11863">
        <ele>235.66</ele>
        <time>2017-05-08T07:37:02Z</time>
      </trkpt>
      <trkpt lat="43.98467" lon="5.11869">
        <ele>234.22</ele>
        <time>2017-05-08T07:37:24Z</time>
      </trkpt>
      <trkpt lat="43.98487" lon="5.11873">
        <ele>232.3</ele>
        <time>2017-05-08T07:37:45Z</time>
      </trkpt>
      <trkpt lat="43.98512" lon="5.11881">
        <ele>230.85</ele>
        <time>2017-05-08T07:38:08Z</time>
      </trkpt>
      <trkpt lat="43.98529" lon="5.11887">
        <ele>229.41</ele>
        <time>2017-05-08T07:38:28Z</time>
      </trkpt>
      <trkpt lat="43.98548" lon="5.1189">
        <ele>228.93</ele>
        <time>2017-05-08T07:38:50Z</time>
      </trkpt>
      <trkpt lat="43.98547" lon="5.11892">
        <ele>228.45</ele>
        <time>2017-05-08T07:39:04Z</time>
      </trkpt>
      <trkpt lat="43.98545" lon="5.11897">
        <ele>227.97</ele>
        <time>2017-05-08T07:39:29Z</time>
      </trkpt>
      <trkpt lat="43.98545" lon="5.11896">
        <ele>229.41</ele>
        <time>2017-05-08T07:39:52Z</time>
      </trkpt>
      <trkpt lat="43.98547" lon="5.11902">
        <ele>229.41</ele>
        <time>2017-05-08T07:40:05Z</time>
      </trkpt>
      <trkpt lat="43.98549" lon="5.11904">
        <ele>227.97</ele>
        <time>2017-05-08T07:40:27Z</time>
      </trkpt>
      <trkpt lat="43.98549" lon="5.11904">
        <ele>229.41</ele>
        <time>2017-05-08T07:40:47Z</time>
      </trkpt>
      <trkpt lat="43.98547" lon="5.11899">
        <ele>229.41</ele>
        <time>2017-05-08T07:41:14Z</time>
      </trkpt>
      <trkpt lat="43.98549" lon="5.11895">
        <ele>229.41</ele>
        <time>2017-05-08T07:41:40Z</time>
      </trkpt>
      <trkpt lat="43.98557" lon="5.11893">
        <ele>229.41</ele>
        <time>2017-05-08T07:41:58Z</time>
      </trkpt>
      <trkpt lat="43.98567" lon="5.11907">
        <ele>229.41</ele>
        <time>2017-05-08T07:42:14Z</time>
      </trkpt>
      <trkpt lat="43.9858" lon="5.11924">
        <ele>230.85</ele>
        <time>2017-05-08T07:42:33Z</time>
      </trkpt>
      <trkpt lat="43.98594" lon="5.11942">
        <ele>232.3</ele>
        <time>2017-05-08T07:42:53Z</time>
      </trkpt>
      <trkpt lat="43.98602" lon="5.11955">
        <ele>234.22</ele>
        <time>2017-05-08T07:43:09Z</time>
      </trkpt>
      <trkpt lat="43.98606" lon="5.11955">
        <ele>234.22</ele>
        <time>2017-05-08T07:43:24Z</time>
      </trkpt>
      <trkpt lat="43.9862" lon="5.11954">
        <ele>234.7</ele>
        <time>2017-05-08T07:43:39Z</time>
      </trkpt>
      <trkpt lat="43.98636" lon="5.1195">
        <ele>236.62</ele>
        <time>2017-05-08T07:43:57Z</time>
      </trkpt>
      <trkpt lat="43.98648" lon="5.11945">
        <ele>238.06</ele>
        <time>2017-05-08T07:44:11Z</time>
      </trkpt>
      <trkpt lat="43.98656" lon="5.11939">
        <ele>239.99</ele>
        <time>2017-05-08T07:44:23Z</time>
      </trkpt>
      <trkpt lat="43.98666" lon="5.11934">
        <ele>243.35</ele>
        <time>2017-05-08T07:44:38Z</time>
      </trkpt>
      <trkpt lat="43.98681" lon="5.11929">
        <ele>246.23</ele>
        <time>2017-05-08T07:44:57Z</time>
      </trkpt>
      <trkpt lat="43.98692" lon="5.11925">
        <ele>248.16</ele>
        <time>2017-05-08T07:45:14Z</time>
      </trkpt>
      <trkpt lat="43.98703" lon="5.11927">
        <ele>250.08</ele>
        <time>2017-05-08T07:45:32Z</time>
      </trkpt>
      <trkpt lat="43.98712" lon="5.11937">
        <ele>252.96</ele>
        <time>2017-05-08T07:45:49Z</time>
      </trkpt>
      <trkpt lat="43.9872" lon="5.11947">
        <ele>255.37</ele>
        <time>2017-05-08T07:46:03Z</time>
      </trkpt>
      <trkpt lat="43.98727" lon="5.11958">
        <ele>257.77</ele>
        <time>2017-05-08T07:46:20Z</time>
      </trkpt>
      <trkpt lat="43.98732" lon="5.11968">
        <ele>260.65</ele>
        <time>2017-05-08T07:46:36Z</time>
      </trkpt>
      <trkpt lat="43.98742" lon="5.11978">
        <ele>263.06</ele>
        <time>2017-05-08T07:46:54Z</time>
      </trkpt>
      <trkpt lat="43.98751" lon="5.11984">
        <ele>265.46</ele>
        <time>2017-05-08T07:47:13Z</time>
      </trkpt>
      <trkpt lat="43.98759" lon="5.11982">
        <ele>267.86</ele>
        <time>2017-05-08T07:47:28Z</time>
      </trkpt>
      <trkpt lat="43.98759" lon="5.1198">
        <ele>268.35</ele>
        <time>2017-05-08T07:47:47Z</time>
      </trkpt>
      <trkpt lat="43.98755" lon="5.11987">
        <ele>268.35</ele>
        <time>2017-05-08T07:48:15Z</time>
      </trkpt>
      <trkpt lat="43.98752" lon="5.11994">
        <ele>267.86</ele>
        <time>2017-05-08T07:48:51Z</time>
      </trkpt>
      <trkpt lat="43.98755" lon="5.1199">
        <ele>268.83</ele>
        <time>2017-05-08T07:49:20Z</time>
      </trkpt>
      <trkpt lat="43.98758" lon="5.11996">
        <ele>270.27</ele>
        <time>2017-05-08T07:49:34Z</time>
      </trkpt>
      <trkpt lat="43.98759" lon="5.12004">
        <ele>273.15</ele>
        <time>2017-05-08T07:49:50Z</time>
      </trkpt>
      <trkpt lat="43.98759" lon="5.12014">
        <ele>274.59</ele>
        <time>2017-05-08T07:50:06Z</time>
      </trkpt>
      <trkpt lat="43.98765" lon="5.12021">
        <ele>277.48</ele>
        <time>2017-05-08T07:50:22Z</time>
      </trkpt>
      <trkpt lat="43.98772" lon="5.12021">
        <ele>279.88</ele>
        <time>2017-05-08T07:50:37Z</time>
      </trkpt>
      <trkpt lat="43.98764" lon="5.12029">
        <ele>281.8</ele>
        <time>2017-05-08T07:50:52Z</time>
      </trkpt>
      <trkpt lat="43.98752" lon="5.12031">
        <ele>284.21</ele>
        <time>2017-05-08T07:51:11Z</time>
      </trkpt>
      <trkpt lat="43.98745" lon="5.12035">
        <ele>286.13</ele>
        <time>2017-05-08T07:51:26Z</time>
      </trkpt>
      <trkpt lat="43.98737" lon="5.12039">
        <ele>287.57</ele>
        <time>2017-05-08T07:51:42Z</time>
      </trkpt>
      <trkpt lat="43.98733" lon="5.12043">
        <ele>288.53</ele>
        <time>2017-05-08T07:51:59Z</time>
      </trkpt>
      <trkpt lat="43.98732" lon="5.12043">
        <ele>288.53</ele>
        <time>2017-05-08T07:52:27Z</time>
      </trkpt>
      <trkpt lat="43.98732" lon="5.12041">
        <ele>289.01</ele>
        <time>2017-05-08T07:52:51Z</time>
      </trkpt>
      <trkpt lat="43.98732" lon="5.12043">
        <ele>288.53</ele>
        <time>2017-05-08T07:53:12Z</time>
      </trkpt>
      <trkpt lat="43.98732" lon="5.12044">
        <ele>288.53</ele>
        <time>2017-05-08T07:53:38Z</time>
      </trkpt>
      <trkpt lat="43.98732" lon="5.12044">
        <ele>288.53</ele>
        <time>2017-05-08T07:54:01Z</time>
      </trkpt>
      <trkpt lat="43.98733" lon="5.12042">
        <ele>288.53</ele>
        <time>2017-05-08T07:54:26Z</time>
      </trkpt>
      <trkpt lat="43.98735" lon="5.12045">
        <ele>288.53</ele>
        <time>2017-05-08T07:54:51Z</time>
      </trkpt>
      <trkpt lat="43.98735" lon="5.12043">
        <ele>287.57</ele>
        <time>2017-05-08T07:55:05Z</time>
      </trkpt>
      <trkpt lat="43.98736" lon="5.12042">
        <ele>287.57</ele>
        <time>2017-05-08T07:55:28Z</time>
      </trkpt>
      <trkpt lat="43.98735" lon="5.12038">
        <ele>287.09</ele>
        <time>2017-05-08T07:55:58Z</time>
      </trkpt>
      <trkpt lat="43.98734" lon="5.12039">
        <ele>287.09</ele>
        <time>2017-05-08T07:56:15Z</time>
      </trkpt>
      <trkpt lat="43.98732" lon="5.12041">
        <ele>288.05</ele>
        <time>2017-05-08T07:56:50Z</time>
      </trkpt>
      <trkpt lat="43.98733" lon="5.12044">
        <ele>288.53</ele>
        <time>2017-05-08T07:57:18Z</time>
      </trkpt>
      <trkpt lat="43.98732" lon="5.12052">
        <ele>288.53</ele>
        <time>2017-05-08T07:57:32Z</time>
      </trkpt>
      <trkpt lat="43.98731" lon="5.1207">
        <ele>288.53</ele>
        <time>2017-05-08T07:57:49Z</time>
      </trkpt>
      <trkpt lat="43.98734" lon="5.12081">
        <ele>291.9</ele>
        <time>2017-05-08T07:58:07Z</time>
      </trkpt>
      <trkpt lat="43.98735" lon="5.1209">
        <ele>292.38</ele>
        <time>2017-05-08T07:58:22Z</time>
      </trkpt>
      <trkpt lat="43.98734" lon="5.12091">
        <ele>291.42</ele>
        <time>2017-05-08T07:58:25Z</time>
      </trkpt>
      <trkpt lat="43.98731" lon="5.12095">
        <ele>290.94</ele>
        <time>2017-05-08T07:58:40Z</time>
      </trkpt>
      <trkpt lat="43.98726" lon="5.12098">
        <ele>290.94</ele>
        <time>2017-05-08T07:58:57Z</time>
      </trkpt>
      <trkpt lat="43.98715" lon="5.12104">
        <ele>290.46</ele>
        <time>2017-05-08T07:59:13Z</time>
      </trkpt>
      <trkpt lat="43.98698" lon="5.12112">
        <ele>289.97</ele>
        <time>2017-05-08T07:59:32Z</time>
      </trkpt>
      <trkpt lat="43.98683" lon="5.12111">
        <ele>290.94</ele>
        <time>2017-05-08T07:59:48Z</time>
      </trkpt>
      <trkpt lat="43.98671" lon="5.1211">
        <ele>291.42</ele>
        <time>2017-05-08T08:00:02Z</time>
      </trkpt>
      <trkpt lat="43.98655" lon="5.12109">
        <ele>291.9</ele>
        <time>2017-05-08T08:00:19Z</time>
      </trkpt>
      <trkpt lat="43.98637" lon="5.12109">
        <ele>292.38</ele>
        <time>2017-05-08T08:00:36Z</time>
      </trkpt>
      <trkpt lat="43.98623" lon="5.12112">
        <ele>292.38</ele>
        <time>2017-05-08T08:00:53Z</time>
      </trkpt>
      <trkpt lat="43.98617" lon="5.12103">
        <ele>289.49</ele>
        <time>2017-05-08T08:01:10Z</time>
      </trkpt>
      <trkpt lat="43.98613" lon="5.12095">
        <ele>289.49</ele>
        <time>2017-05-08T08:01:25Z</time>
      </trkpt>
      <trkpt lat="43.98613" lon="5.12095">
        <ele>289.49</ele>
        <time>2017-05-08T08:01:54Z</time>
      </trkpt>
      <trkpt lat="43.98614" lon="5.12097">
        <ele>291.42</ele>
        <time>2017-05-08T08:02:01Z</time>
      </trkpt>
      <trkpt lat="43.98615" lon="5.12101">
        <ele>289.97</ele>
        <time>2017-05-08T08:02:14Z</time>
      </trkpt>
      <trkpt lat="43.98611" lon="5.121">
        <ele>289.97</ele>
        <time>2017-05-08T08:02:39Z</time>
      </trkpt>
      <trkpt lat="43.98612" lon="5.12096">
        <ele>289.01</ele>
        <time>2017-05-08T08:02:59Z</time>
      </trkpt>
      <trkpt lat="43.98613" lon="5.12095">
        <ele>289.01</ele>
        <time>2017-05-08T08:03:19Z</time>
      </trkpt>
      <trkpt lat="43.98612" lon="5.12097">
        <ele>290.46</ele>
        <time>2017-05-08T08:03:53Z</time>
      </trkpt>
      <trkpt lat="43.98612" lon="5.12095">
        <ele>290.46</ele>
        <time>2017-05-08T08:04:12Z</time>
      </trkpt>
      <trkpt lat="43.98613" lon="5.12094">
        <ele>290.46</ele>
        <time>2017-05-08T08:04:38Z</time>
      </trkpt>
      <trkpt lat="43.98614" lon="5.12101">
        <ele>290.46</ele>
        <time>2017-05-08T08:04:59Z</time>
      </trkpt>
      <trkpt lat="43.98615" lon="5.12102">
        <ele>289.01</ele>
        <time>2017-05-08T08:05:04Z</time>
      </trkpt>
      <trkpt lat="43.98618" lon="5.12103">
        <ele>289.01</ele>
        <time>2017-05-08T08:05:23Z</time>
      </trkpt>
      <trkpt lat="43.98616" lon="5.12099">
        <ele>289.01</ele>
        <time>2017-05-08T08:05:57Z</time>
      </trkpt>
      <trkpt lat="43.98618" lon="5.12102">
        <ele>289.01</ele>
        <time>2017-05-08T08:06:26Z</time>
      </trkpt>
      <trkpt lat="43.98618" lon="5.12102">
        <ele>289.97</ele>
        <time>2017-05-08T08:06:34Z</time>
      </trkpt>
      <trkpt lat="43.98617" lon="5.12101">
        <ele>289.01</ele>
        <time>2017-05-08T08:07:00Z</time>
      </trkpt>
      <trkpt lat="43.98616" lon="5.12102">
        <ele>289.01</ele>
        <time>2017-05-08T08:07:26Z</time>
      </trkpt>
      <trkpt lat="43.98615" lon="5.12104">
        <ele>289.01</ele>
        <time>2017-05-08T08:07:47Z</time>
      </trkpt>
      <trkpt lat="43.98614" lon="5.12104">
        <ele>289.97</ele>
        <time>2017-05-08T08:08:15Z</time>
      </trkpt>
      <trkpt lat="43.98617" lon="5.12109">
        <ele>289.97</ele>
        <time>2017-05-08T08:08:33Z</time>
      </trkpt>
      <trkpt lat="43.98618" lon="5.1212">
        <ele>291.9</ele>
        <time>2017-05-08T08:08:49Z</time>
      </trkpt>
      <trkpt lat="43.98614" lon="5.12132">
        <ele>292.38</ele>
        <time>2017-05-08T08:09:05Z</time>
      </trkpt>
      <trkpt lat="43.9861" lon="5.12151">
        <ele>291.9</ele>
        <time>2017-05-08T08:09:24Z</time>
      </trkpt>
      <trkpt lat="43.98604" lon="5.12171">
        <ele>291.42</ele>
        <time>2017-05-08T08:09:41Z</time>
      </trkpt>
      <trkpt lat="43.98602" lon="5.12189">
        <ele>290.94</ele>
        <time>2017-05-08T08:09:58Z</time>
      </trkpt>
      <trkpt lat="43.986" lon="5.12204">
        <ele>290.46</ele>
        <time>2017-05-08T08:10:15Z</time>
      </trkpt>
      <trkpt lat="43.98598" lon="5.12223">
        <ele>291.9</ele>
        <time>2017-05-08T08:10:30Z</time>
      </trkpt>
      <trkpt lat="43.98592" lon="5.12244">
        <ele>292.38</ele>
        <time>2017-05-08T08:10:47Z</time>
      </trkpt>
      <trkpt lat="43.98584" lon="5.12263">
        <ele>290.94</ele>
        <time>2017-05-08T08:11:02Z</time>
      </trkpt>
      <trkpt lat="43.98582" lon="5.12281">
        <ele>290.94</ele>
        <time>2017-05-08T08:11:21Z</time>
      </trkpt>
      <trkpt lat="43.98579" lon="5.12303">
        <ele>290.46</ele>
        <time>2017-05-08T08:11:37Z</time>
      </trkpt>
      <trkpt lat="43.98577" lon="5.12307">
        <ele>290.46</ele>
        <time>2017-05-08T08:11:40Z</time>
      </trkpt>
      <trkpt lat="43.98568" lon="5.12331">
        <ele>290.46</ele>
        <time>2017-05-08T08:12:00Z</time>
      </trkpt>
      <trkpt lat="43.98556" lon="5.12351">
        <ele>290.46</ele>
        <time>2017-05-08T08:12:17Z</time>
      </trkpt>
      <trkpt lat="43.98542" lon="5.12372">
        <ele>290.46</ele>
        <time>2017-05-08T08:12:38Z</time>
      </trkpt>
      <trkpt lat="43.98535" lon="5.12389">
        <ele>290.46</ele>
        <time>2017-05-08T08:12:55Z</time>
      </trkpt>
      <trkpt lat="43.98526" lon="5.12406">
        <ele>289.97</ele>
        <time>2017-05-08T08:13:10Z</time>
      </trkpt>
      <trkpt lat="43.98525" lon="5.12417">
        <ele>289.97</ele>
        <time>2017-05-08T08:13:25Z</time>
      </trkpt>
      <trkpt lat="43.98525" lon="5.12419">
        <ele>289.97</ele>
        <time>2017-05-08T08:13:26Z</time>
      </trkpt>
      <trkpt lat="43.98526" lon="5.12428">
        <ele>289.49</ele>
        <time>2017-05-08T08:13:32Z</time>
      </trkpt>
      <trkpt lat="43.98532" lon="5.12451">
        <ele>288.53</ele>
        <time>2017-05-08T08:13:49Z</time>
      </trkpt>
      <trkpt lat="43.98542" lon="5.12474">
        <ele>288.05</ele>
        <time>2017-05-08T08:14:07Z</time>
      </trkpt>
      <trkpt lat="43.98546" lon="5.12492">
        <ele>286.61</ele>
        <time>2017-05-08T08:14:23Z</time>
      </trkpt>
      <trkpt lat="43.98538" lon="5.12504">
        <ele>286.13</ele>
        <time>2017-05-08T08:14:40Z</time>
      </trkpt>
      <trkpt lat="43.98524" lon="5.12509">
        <ele>284.21</ele>
        <time>2017-05-08T08:14:57Z</time>
      </trkpt>
      <trkpt lat="43.98501" lon="5.12508">
        <ele>284.21</ele>
        <time>2017-05-08T08:15:20Z</time>
      </trkpt>
      <trkpt lat="43.9849" lon="5.12508">
        <ele>284.21</ele>
        <time>2017-05-08T08:15:36Z</time>
      </trkpt>
      <trkpt lat="43.98479" lon="5.12512">
        <ele>284.21</ele>
        <time>2017-05-08T08:15:49Z</time>
      </trkpt>
      <trkpt lat="43.98472" lon="5.12532">
        <ele>283.73</ele>
        <time>2017-05-08T08:16:09Z</time>
      </trkpt>
      <trkpt lat="43.98472" lon="5.12539">
        <ele>283.25</ele>
        <time>2017-05-08T08:16:24Z</time>
      </trkpt>
      <trkpt lat="43.98467" lon="5.12551">
        <ele>282.77</ele>
        <time>2017-05-08T08:16:44Z</time>
      </trkpt>
      <trkpt lat="43.98463" lon="5.12556">
        <ele>282.28</ele>
        <time>2017-05-08T08:17:04Z</time>
      </trkpt>
      <trkpt lat="43.98458" lon="5.12563">
        <ele>282.28</ele>
        <time>2017-05-08T08:17:23Z</time>
      </trkpt>
      <trkpt lat="43.98457" lon="5.12574">
        <ele>281.8</ele>
        <time>2017-05-08T08:17:37Z</time>
      </trkpt>
      <trkpt lat="43.98458" lon="5.12572">
        <ele>281.32</ele>
        <time>2017-05-08T08:17:57Z</time>
      </trkpt>
      <trkpt lat="43.98458" lon="5.12571">
        <ele>281.32</ele>
        <time>2017-05-08T08:18:20Z</time>
      </trkpt>
      <trkpt lat="43.98455" lon="5.12571">
        <ele>282.77</ele>
        <time>2017-05-08T08:18:48Z</time>
      </trkpt>
      <trkpt lat="43.98457" lon="5.12575">
        <ele>279.88</ele>
        <time>2017-05-08T08:19:11Z</time>
      </trkpt>
      <trkpt lat="43.98458" lon="5.12574">
        <ele>281.32</ele>
        <time>2017-05-08T08:19:14Z</time>
      </trkpt>
      <trkpt lat="43.9846" lon="5.12576">
        <ele>281.32</ele>
        <time>2017-05-08T08:19:37Z</time>
      </trkpt>
      <trkpt lat="43.98462" lon="5.12574">
        <ele>281.32</ele>
        <time>2017-05-08T08:20:01Z</time>
      </trkpt>
      <trkpt lat="43.98461" lon="5.12573">
        <ele>275.56</ele>
        <time>2017-05-08T08:20:14Z</time>
      </trkpt>
      <trkpt lat="43.98461" lon="5.12573">
        <ele>286.13</ele>
        <time>2017-05-08T08:20:15Z</time>
      </trkpt>
      <trkpt lat="43.98461" lon="5.12573">
        <ele>280.84</ele>
        <time>2017-05-08T08:20:16Z</time>
      </trkpt>
      <trkpt lat="43.98456" lon="5.12576">
        <ele>280.84</ele>
        <time>2017-05-08T08:20:35Z</time>
      </trkpt>
      <trkpt lat="43.98454" lon="5.12576">
        <ele>279.88</ele>
        <time>2017-05-08T08:20:59Z</time>
      </trkpt>
      <trkpt lat="43.98453" lon="5.1258">
        <ele>279.88</ele>
        <time>2017-05-08T08:21:19Z</time>
      </trkpt>
      <trkpt lat="43.98452" lon="5.12593">
        <ele>279.4</ele>
        <time>2017-05-08T08:21:36Z</time>
      </trkpt>
      <trkpt lat="43.98448" lon="5.12602">
        <ele>278.44</ele>
        <time>2017-05-08T08:21:50Z</time>
      </trkpt>
      <trkpt lat="43.98443" lon="5.12618">
        <ele>277.48</ele>
        <time>2017-05-08T08:22:08Z</time>
      </trkpt>
      <trkpt lat="43.98441" lon="5.12636">
        <ele>276.04</ele>
        <time>2017-05-08T08:22:25Z</time>
      </trkpt>
      <trkpt lat="43.98428" lon="5.12651">
        <ele>275.56</ele>
        <time>2017-05-08T08:22:45Z</time>
      </trkpt>
      <trkpt lat="43.98417" lon="5.12672">
        <ele>275.07</ele>
        <time>2017-05-08T08:23:04Z</time>
      </trkpt>
      <trkpt lat="43.98414" lon="5.12692">
        <ele>275.07</ele>
        <time>2017-05-08T08:23:23Z</time>
      </trkpt>
      <trkpt lat="43.98411" lon="5.1271">
        <ele>274.11</ele>
        <time>2017-05-08T08:23:38Z</time>
      </trkpt>
      <trkpt lat="43.98417" lon="5.12732">
        <ele>273.63</ele>
        <time>2017-05-08T08:23:57Z</time>
      </trkpt>
      <trkpt lat="43.98425" lon="5.12748">
        <ele>272.19</ele>
        <time>2017-05-08T08:24:12Z</time>
      </trkpt>
      <trkpt lat="43.98434" lon="5.12764">
        <ele>272.19</ele>
        <time>2017-05-08T08:24:28Z</time>
      </trkpt>
      <trkpt lat="43.98442" lon="5.12783">
        <ele>271.71</ele>
        <time>2017-05-08T08:24:45Z</time>
      </trkpt>
      <trkpt lat="43.98449" lon="5.12801">
        <ele>271.23</ele>
        <time>2017-05-08T08:25:03Z</time>
      </trkpt>
      <trkpt lat="43.98443" lon="5.12815">
        <ele>271.23</ele>
        <time>2017-05-08T08:25:19Z</time>
      </trkpt>
      <trkpt lat="43.98431" lon="5.12823">
        <ele>271.23</ele>
        <time>2017-05-08T08:25:34Z</time>
      </trkpt>
      <trkpt lat="43.98415" lon="5.12834">
        <ele>271.23</ele>
        <time>2017-05-08T08:25:52Z</time>
      </trkpt>
      <trkpt lat="43.98406" lon="5.12849">
        <ele>272.67</ele>
        <time>2017-05-08T08:26:05Z</time>
      </trkpt>
      <trkpt lat="43.984" lon="5.12863">
        <ele>272.67</ele>
        <time>2017-05-08T08:26:23Z</time>
      </trkpt>
      <trkpt lat="43.98395" lon="5.12869">
        <ele>271.71</ele>
        <time>2017-05-08T08:26:32Z</time>
      </trkpt>
      <trkpt lat="43.98381" lon="5.12879">
        <ele>270.27</ele>
        <time>2017-05-08T08:26:49Z</time>
      </trkpt>
      <trkpt lat="43.98367" lon="5.12879">
        <ele>270.27</ele>
        <time>2017-05-08T08:27:07Z</time>
      </trkpt>
      <trkpt lat="43.98358" lon="5.12887">
        <ele>270.27</ele>
        <time>2017-05-08T08:27:21Z</time>
      </trkpt>
      <trkpt lat="43.98347" lon="5.12898">
        <ele>270.27</ele>
        <time>2017-05-08T08:27:40Z</time>
      </trkpt>
      <trkpt lat="43.98344" lon="5.12906">
        <ele>271.71</ele>
        <time>2017-05-08T08:27:52Z</time>
      </trkpt>
      <trkpt lat="43.98345" lon="5.12908">
        <ele>270.27</ele>
        <time>2017-05-08T08:28:08Z</time>
      </trkpt>
      <trkpt lat="43.98344" lon="5.1291">
        <ele>270.27</ele>
        <time>2017-05-08T08:28:37Z</time>
      </trkpt>
      <trkpt lat="43.98343" lon="5.12912">
        <ele>269.79</ele>
        <time>2017-05-08T08:29:03Z</time>
      </trkpt>
      <trkpt lat="43.98346" lon="5.12911">
        <ele>269.79</ele>
        <time>2017-05-08T08:29:42Z</time>
      </trkpt>
      <trkpt lat="43.98346" lon="5.12912">
        <ele>269.79</ele>
        <time>2017-05-08T08:30:22Z</time>
      </trkpt>
      <trkpt lat="43.98344" lon="5.12911">
        <ele>269.79</ele>
        <time>2017-05-08T08:31:04Z</time>
      </trkpt>
      <trkpt lat="43.98343" lon="5.12912">
        <ele>269.79</ele>
        <time>2017-05-08T08:31:47Z</time>
      </trkpt>
      <trkpt lat="43.98344" lon="5.1291">
        <ele>269.79</ele>
        <time>2017-05-08T08:32:29Z</time>
      </trkpt>
      <trkpt lat="43.98343" lon="5.1291">
        <ele>269.31</ele>
        <time>2017-05-08T08:33:06Z</time>
      </trkpt>
      <trkpt lat="43.98343" lon="5.1291">
        <ele>270.75</ele>
        <time>2017-05-08T08:33:08Z</time>
      </trkpt>
      <trkpt lat="43.98343" lon="5.12909">
        <ele>269.79</ele>
        <time>2017-05-08T08:33:56Z</time>
      </trkpt>
      <trkpt lat="43.98343" lon="5.12909">
        <ele>270.75</ele>
        <time>2017-05-08T08:34:03Z</time>
      </trkpt>
      <trkpt lat="43.98342" lon="5.12909">
        <ele>271.23</ele>
        <time>2017-05-08T08:34:29Z</time>
      </trkpt>
      <trkpt lat="43.98344" lon="5.12909">
        <ele>271.71</ele>
        <time>2017-05-08T08:35:08Z</time>
      </trkpt>
      <trkpt lat="43.98344" lon="5.1291">
        <ele>271.71</ele>
        <time>2017-05-08T08:36:06Z</time>
      </trkpt>
      <trkpt lat="43.98345" lon="5.1291">
        <ele>270.75</ele>
        <time>2017-05-08T08:36:59Z</time>
      </trkpt>
      <trkpt lat="43.98344" lon="5.12913">
        <ele>270.75</ele>
        <time>2017-05-08T08:37:48Z</time>
      </trkpt>
      <trkpt lat="43.98344" lon="5.12912">
        <ele>272.67</ele>
        <time>2017-05-08T08:38:28Z</time>
      </trkpt>
      <trkpt lat="43.98344" lon="5.12912">
        <ele>271.71</ele>
        <time>2017-05-08T08:38:33Z</time>
      </trkpt>
      <trkpt lat="43.98344" lon="5.12909">
        <ele>271.71</ele>
        <time>2017-05-08T08:39:28Z</time>
      </trkpt>
      <trkpt lat="43.98342" lon="5.1291">
        <ele>271.71</ele>
        <time>2017-05-08T08:40:18Z</time>
      </trkpt>
      <trkpt lat="43.98343" lon="5.1291">
        <ele>272.67</ele>
        <time>2017-05-08T08:41:04Z</time>
      </trkpt>
      <trkpt lat="43.98343" lon="5.1291">
        <ele>273.15</ele>
        <time>2017-05-08T08:41:59Z</time>
      </trkpt>
      <trkpt lat="43.98341" lon="5.1291">
        <ele>274.59</ele>
        <time>2017-05-08T08:42:20Z</time>
      </trkpt>
      <trkpt lat="43.98343" lon="5.12911">
        <ele>275.07</ele>
        <time>2017-05-08T08:42:38Z</time>
      </trkpt>
      <trkpt lat="43.98344" lon="5.12911">
        <ele>275.07</ele>
        <time>2017-05-08T08:42:56Z</time>
      </trkpt>
      <trkpt lat="43.98339" lon="5.12917">
        <ele>275.07</ele>
        <time>2017-05-08T08:43:09Z</time>
      </trkpt>
      <trkpt lat="43.98345" lon="5.12925">
        <ele>275.56</ele>
        <time>2017-05-08T08:43:23Z</time>
      </trkpt>
      <trkpt lat="43.98352" lon="5.12933">
        <ele>277</ele>
        <time>2017-05-08T08:43:41Z</time>
      </trkpt>
      <trkpt lat="43.98346" lon="5.1295">
        <ele>277.96</ele>
        <time>2017-05-08T08:43:57Z</time>
      </trkpt>
      <trkpt lat="43.98339" lon="5.12967">
        <ele>277.96</ele>
        <time>2017-05-08T08:44:15Z</time>
      </trkpt>
      <trkpt lat="43.98338" lon="5.12973">
        <ele>277.96</ele>
        <time>2017-05-08T08:44:29Z</time>
      </trkpt>
      <trkpt lat="43.98337" lon="5.12976">
        <ele>279.4</ele>
        <time>2017-05-08T08:44:32Z</time>
      </trkpt>
      <trkpt lat="43.98338" lon="5.12982">
        <ele>277.96</ele>
        <time>2017-05-08T08:44:40Z</time>
      </trkpt>
      <trkpt lat="43.9833" lon="5.12995">
        <ele>279.88</ele>
        <time>2017-05-08T08:44:56Z</time>
      </trkpt>
      <trkpt lat="43.98318" lon="5.13004">
        <ele>280.36</ele>
        <time>2017-05-08T08:45:11Z</time>
      </trkpt>
      <trkpt lat="43.98308" lon="5.13019">
        <ele>281.8</ele>
        <time>2017-05-08T08:45:29Z</time>
      </trkpt>
      <trkpt lat="43.983" lon="5.13033">
        <ele>283.73</ele>
        <time>2017-05-08T08:45:47Z</time>
      </trkpt>
      <trkpt lat="43.98292" lon="5.13048">
        <ele>284.21</ele>
        <time>2017-05-08T08:46:04Z</time>
      </trkpt>
      <trkpt lat="43.98281" lon="5.13068">
        <ele>284.21</ele>
        <time>2017-05-08T08:46:23Z</time>
      </trkpt>
      <trkpt lat="43.98271" lon="5.13081">
        <ele>284.21</ele>
        <time>2017-05-08T08:46:38Z</time>
      </trkpt>
      <trkpt lat="43.98258" lon="5.13098">
        <ele>283.73</ele>
        <time>2017-05-08T08:46:55Z</time>
      </trkpt>
      <trkpt lat="43.98246" lon="5.13114">
        <ele>284.21</ele>
        <time>2017-05-08T08:47:11Z</time>
      </trkpt>
      <trkpt lat="43.98237" lon="5.13123">
        <ele>283.73</ele>
        <time>2017-05-08T08:47:22Z</time>
      </trkpt>
      <trkpt lat="43.98235" lon="5.13127">
        <ele>285.17</ele>
        <time>2017-05-08T08:47:25Z</time>
      </trkpt>
      <trkpt lat="43.98229" lon="5.13146">
        <ele>286.13</ele>
        <time>2017-05-08T08:47:44Z</time>
      </trkpt>
      <trkpt lat="43.98225" lon="5.13163">
        <ele>287.57</ele>
        <time>2017-05-08T08:48:01Z</time>
      </trkpt>
      <trkpt lat="43.98212" lon="5.13178">
        <ele>288.05</ele>
        <time>2017-05-08T08:48:19Z</time>
      </trkpt>
      <trkpt lat="43.98208" lon="5.13184">
        <ele>288.53</ele>
        <time>2017-05-08T08:48:24Z</time>
      </trkpt>
      <trkpt lat="43.98193" lon="5.13205">
        <ele>288.53</ele>
        <time>2017-05-08T08:48:44Z</time>
      </trkpt>
      <trkpt lat="43.98185" lon="5.13224">
        <ele>288.53</ele>
        <time>2017-05-08T08:49:03Z</time>
      </trkpt>
      <trkpt lat="43.98179" lon="5.13238">
        <ele>288.05</ele>
        <time>2017-05-08T08:49:19Z</time>
      </trkpt>
      <trkpt lat="43.9817" lon="5.13255">
        <ele>288.05</ele>
        <time>2017-05-08T08:49:36Z</time>
      </trkpt>
      <trkpt lat="43.98148" lon="5.13267">
        <ele>285.65</ele>
        <time>2017-05-08T08:49:57Z</time>
      </trkpt>
      <trkpt lat="43.98133" lon="5.13273">
        <ele>284.69</ele>
        <time>2017-05-08T08:50:16Z</time>
      </trkpt>
      <trkpt lat="43.98117" lon="5.13272">
        <ele>282.77</ele>
        <time>2017-05-08T08:50:34Z</time>
      </trkpt>
      <trkpt lat="43.98102" lon="5.1327">
        <ele>282.28</ele>
        <time>2017-05-08T08:50:53Z</time>
      </trkpt>
      <trkpt lat="43.981" lon="5.13272">
        <ele>280.84</ele>
        <time>2017-05-08T08:50:57Z</time>
      </trkpt>
      <trkpt lat="43.98093" lon="5.1328">
        <ele>277.96</ele>
        <time>2017-05-08T08:51:12Z</time>
      </trkpt>
      <trkpt lat="43.98087" lon="5.1329">
        <ele>277.48</ele>
        <time>2017-05-08T08:51:27Z</time>
      </trkpt>
      <trkpt lat="43.98075" lon="5.13299">
        <ele>275.56</ele>
        <time>2017-05-08T08:51:46Z</time>
      </trkpt>
      <trkpt lat="43.98066" lon="5.13302">
        <ele>275.07</ele>
        <time>2017-05-08T08:52:00Z</time>
      </trkpt>
      <trkpt lat="43.98052" lon="5.13305">
        <ele>274.11</ele>
        <time>2017-05-08T08:52:16Z</time>
      </trkpt>
      <trkpt lat="43.98043" lon="5.13299">
        <ele>274.11</ele>
        <time>2017-05-08T08:52:32Z</time>
      </trkpt>
      <trkpt lat="43.98041" lon="5.13297">
        <ele>275.56</ele>
        <time>2017-05-08T08:52:36Z</time>
      </trkpt>
      <trkpt lat="43.98033" lon="5.13301">
        <ele>276.52</ele>
        <time>2017-05-08T08:52:53Z</time>
      </trkpt>
      <trkpt lat="43.98025" lon="5.13304">
        <ele>279.4</ele>
        <time>2017-05-08T08:53:08Z</time>
      </trkpt>
      <trkpt lat="43.98017" lon="5.13309">
        <ele>280.84</ele>
        <time>2017-05-08T08:53:24Z</time>
      </trkpt>
      <trkpt lat="43.98009" lon="5.13317">
        <ele>282.77</ele>
        <time>2017-05-08T08:53:41Z</time>
      </trkpt>
      <trkpt lat="43.98002" lon="5.13324">
        <ele>284.21</ele>
        <time>2017-05-08T08:53:55Z</time>
      </trkpt>
      <trkpt lat="43.97994" lon="5.13329">
        <ele>286.61</ele>
        <time>2017-05-08T08:54:14Z</time>
      </trkpt>
      <trkpt lat="43.97988" lon="5.13334">
        <ele>287.09</ele>
        <time>2017-05-08T08:54:28Z</time>
      </trkpt>
      <trkpt lat="43.9798" lon="5.1334">
        <ele>289.97</ele>
        <time>2017-05-08T08:54:43Z</time>
      </trkpt>
      <trkpt lat="43.97975" lon="5.13339">
        <ele>291.9</ele>
        <time>2017-05-08T08:54:59Z</time>
      </trkpt>
      <trkpt lat="43.97965" lon="5.13341">
        <ele>293.82</ele>
        <time>2017-05-08T08:55:15Z</time>
      </trkpt>
      <trkpt lat="43.97957" lon="5.13341">
        <ele>295.74</ele>
        <time>2017-05-08T08:55:31Z</time>
      </trkpt>
      <trkpt lat="43.9795" lon="5.13339">
        <ele>297.67</ele>
        <time>2017-05-08T08:55:44Z</time>
      </trkpt>
      <trkpt lat="43.97942" lon="5.13336">
        <ele>300.07</ele>
        <time>2017-05-08T08:55:59Z</time>
      </trkpt>
      <trkpt lat="43.97941" lon="5.13335">
        <ele>301.03</ele>
        <time>2017-05-08T08:56:01Z</time>
      </trkpt>
      <trkpt lat="43.97932" lon="5.13334">
        <ele>301.99</ele>
        <time>2017-05-08T08:56:15Z</time>
      </trkpt>
      <trkpt lat="43.97931" lon="5.13334">
        <ele>303.43</ele>
        <time>2017-05-08T08:56:17Z</time>
      </trkpt>
      <trkpt lat="43.97929" lon="5.13333">
        <ele>301.99</ele>
        <time>2017-05-08T08:56:21Z</time>
      </trkpt>
      <trkpt lat="43.97929" lon="5.13333">
        <ele>303.43</ele>
        <time>2017-05-08T08:56:27Z</time>
      </trkpt>
      <trkpt lat="43.97926" lon="5.13326">
        <ele>304.39</ele>
        <time>2017-05-08T08:56:48Z</time>
      </trkpt>
      <trkpt lat="43.97919" lon="5.13317">
        <ele>304.88</ele>
        <time>2017-05-08T08:57:02Z</time>
      </trkpt>
      <trkpt lat="43.97914" lon="5.13315">
        <ele>306.32</ele>
        <time>2017-05-08T08:57:13Z</time>
      </trkpt>
      <trkpt lat="43.97913" lon="5.13315">
        <ele>305.36</ele>
        <time>2017-05-08T08:57:18Z</time>
      </trkpt>
      <trkpt lat="43.97914" lon="5.13316">
        <ele>304.88</ele>
        <time>2017-05-08T08:57:34Z</time>
      </trkpt>
      <trkpt lat="43.97916" lon="5.13316">
        <ele>305.36</ele>
        <time>2017-05-08T08:57:46Z</time>
      </trkpt>
      <trkpt lat="43.97918" lon="5.13314">
        <ele>304.39</ele>
        <time>2017-05-08T08:58:11Z</time>
      </trkpt>
      <trkpt lat="43.97917" lon="5.13313">
        <ele>305.36</ele>
        <time>2017-05-08T08:58:22Z</time>
      </trkpt>
      <trkpt lat="43.97914" lon="5.1331">
        <ele>304.39</ele>
        <time>2017-05-08T08:58:41Z</time>
      </trkpt>
      <trkpt lat="43.97914" lon="5.13311">
        <ele>304.39</ele>
        <time>2017-05-08T08:58:52Z</time>
      </trkpt>
      <trkpt lat="43.97913" lon="5.13311">
        <ele>306.32</ele>
        <time>2017-05-08T08:59:05Z</time>
      </trkpt>
      <trkpt lat="43.97914" lon="5.13311">
        <ele>304.88</ele>
        <time>2017-05-08T08:59:07Z</time>
      </trkpt>
      <trkpt lat="43.97914" lon="5.13318">
        <ele>304.39</ele>
        <time>2017-05-08T08:59:22Z</time>
      </trkpt>
      <trkpt lat="43.97913" lon="5.13319">
        <ele>305.84</ele>
        <time>2017-05-08T08:59:29Z</time>
      </trkpt>
      <trkpt lat="43.97913" lon="5.13319">
        <ele>304.39</ele>
        <time>2017-05-08T08:59:33Z</time>
      </trkpt>
      <trkpt lat="43.97909" lon="5.13319">
        <ele>304.39</ele>
        <time>2017-05-08T08:59:58Z</time>
      </trkpt>
      <trkpt lat="43.97901" lon="5.13318">
        <ele>305.36</ele>
        <time>2017-05-08T09:00:07Z</time>
      </trkpt>
      <trkpt lat="43.97886" lon="5.13323">
        <ele>304.88</ele>
        <time>2017-05-08T09:00:23Z</time>
      </trkpt>
      <trkpt lat="43.97869" lon="5.13327">
        <ele>303.91</ele>
        <time>2017-05-08T09:00:42Z</time>
      </trkpt>
      <trkpt lat="43.97864" lon="5.13328">
        <ele>303.91</ele>
        <time>2017-05-08T09:00:47Z</time>
      </trkpt>
      <trkpt lat="43.97843" lon="5.13332">
        <ele>302.95</ele>
        <time>2017-05-08T09:01:07Z</time>
      </trkpt>
      <trkpt lat="43.97824" lon="5.13338">
        <ele>302.95</ele>
        <time>2017-05-08T09:01:29Z</time>
      </trkpt>
      <trkpt lat="43.97802" lon="5.13347">
        <ele>302.47</ele>
        <time>2017-05-08T09:01:49Z</time>
      </trkpt>
      <trkpt lat="43.97784" lon="5.13355">
        <ele>301.03</ele>
        <time>2017-05-08T09:02:07Z</time>
      </trkpt>
      <trkpt lat="43.97764" lon="5.13362">
        <ele>299.59</ele>
        <time>2017-05-08T09:02:27Z</time>
      </trkpt>
      <trkpt lat="43.97746" lon="5.13367">
        <ele>299.11</ele>
        <time>2017-05-08T09:02:45Z</time>
      </trkpt>
      <trkpt lat="43.97733" lon="5.13377">
        <ele>298.15</ele>
        <time>2017-05-08T09:03:02Z</time>
      </trkpt>
      <trkpt lat="43.97725" lon="5.13386">
        <ele>299.11</ele>
        <time>2017-05-08T09:03:13Z</time>
      </trkpt>
      <trkpt lat="43.97713" lon="5.134">
        <ele>299.11</ele>
        <time>2017-05-08T09:03:30Z</time>
      </trkpt>
      <trkpt lat="43.97698" lon="5.13421">
        <ele>299.59</ele>
        <time>2017-05-08T09:03:51Z</time>
      </trkpt>
      <trkpt lat="43.9769" lon="5.13434">
        <ele>299.59</ele>
        <time>2017-05-08T09:04:05Z</time>
      </trkpt>
      <trkpt lat="43.97678" lon="5.13453">
        <ele>299.11</ele>
        <time>2017-05-08T09:04:25Z</time>
      </trkpt>
      <trkpt lat="43.97665" lon="5.13461">
        <ele>298.15</ele>
        <time>2017-05-08T09:04:39Z</time>
      </trkpt>
      <trkpt lat="43.97653" lon="5.13445">
        <ele>296.7</ele>
        <time>2017-05-08T09:04:58Z</time>
      </trkpt>
      <trkpt lat="43.97652" lon="5.13441">
        <ele>295.74</ele>
        <time>2017-05-08T09:05:01Z</time>
      </trkpt>
      <trkpt lat="43.97653" lon="5.13434">
        <ele>296.7</ele>
        <time>2017-05-08T09:05:06Z</time>
      </trkpt>
      <trkpt lat="43.97646" lon="5.1342">
        <ele>297.18</ele>
        <time>2017-05-08T09:05:21Z</time>
      </trkpt>
      <trkpt lat="43.97635" lon="5.13428">
        <ele>299.11</ele>
        <time>2017-05-08T09:05:38Z</time>
      </trkpt>
      <trkpt lat="43.97623" lon="5.13443">
        <ele>299.59</ele>
        <time>2017-05-08T09:05:56Z</time>
      </trkpt>
      <trkpt lat="43.97612" lon="5.13462">
        <ele>301.51</ele>
        <time>2017-05-08T09:06:14Z</time>
      </trkpt>
      <trkpt lat="43.97605" lon="5.13476">
        <ele>303.43</ele>
        <time>2017-05-08T09:06:32Z</time>
      </trkpt>
      <trkpt lat="43.976" lon="5.13489">
        <ele>306.32</ele>
        <time>2017-05-08T09:06:45Z</time>
      </trkpt>
      <trkpt lat="43.97593" lon="5.13504">
        <ele>307.28</ele>
        <time>2017-05-08T09:07:02Z</time>
      </trkpt>
      <trkpt lat="43.97585" lon="5.13522">
        <ele>308.72</ele>
        <time>2017-05-08T09:07:19Z</time>
      </trkpt>
      <trkpt lat="43.97576" lon="5.13542">
        <ele>310.64</ele>
        <time>2017-05-08T09:07:39Z</time>
      </trkpt>
      <trkpt lat="43.97568" lon="5.1356">
        <ele>311.6</ele>
        <time>2017-05-08T09:07:56Z</time>
      </trkpt>
      <trkpt lat="43.97558" lon="5.13579">
        <ele>313.53</ele>
        <time>2017-05-08T09:08:14Z</time>
      </trkpt>
      <trkpt lat="43.97549" lon="5.13595">
        <ele>314.97</ele>
        <time>2017-05-08T09:08:31Z</time>
      </trkpt>
      <trkpt lat="43.9754" lon="5.13607">
        <ele>317.37</ele>
        <time>2017-05-08T09:08:47Z</time>
      </trkpt>
      <trkpt lat="43.97529" lon="5.13621">
        <ele>319.3</ele>
        <time>2017-05-08T09:09:05Z</time>
      </trkpt>
      <trkpt lat="43.97519" lon="5.13634">
        <ele>321.7</ele>
        <time>2017-05-08T09:09:22Z</time>
      </trkpt>
      <trkpt lat="43.97509" lon="5.13647">
        <ele>323.62</ele>
        <time>2017-05-08T09:09:40Z</time>
      </trkpt>
      <trkpt lat="43.97499" lon="5.13656">
        <ele>325.54</ele>
        <time>2017-05-08T09:09:58Z</time>
      </trkpt>
      <trkpt lat="43.97494" lon="5.13658">
        <ele>326.99</ele>
        <time>2017-05-08T09:10:03Z</time>
      </trkpt>
      <trkpt lat="43.97481" lon="5.13666">
        <ele>330.83</ele>
        <time>2017-05-08T09:10:18Z</time>
      </trkpt>
      <trkpt lat="43.97479" lon="5.13667">
        <ele>331.79</ele>
        <time>2017-05-08T09:10:20Z</time>
      </trkpt>
      <trkpt lat="43.97471" lon="5.13673">
        <ele>331.79</ele>
        <time>2017-05-08T09:10:34Z</time>
      </trkpt>
      <trkpt lat="43.97462" lon="5.13682">
        <ele>333.71</ele>
        <time>2017-05-08T09:10:50Z</time>
      </trkpt>
      <trkpt lat="43.9746" lon="5.13685">
        <ele>333.71</ele>
        <time>2017-05-08T09:11:06Z</time>
      </trkpt>
      <trkpt lat="43.97459" lon="5.13686">
        <ele>334.2</ele>
        <time>2017-05-08T09:11:12Z</time>
      </trkpt>
      <trkpt lat="43.97458" lon="5.13686">
        <ele>333.23</ele>
        <time>2017-05-08T09:11:19Z</time>
      </trkpt>
      <trkpt lat="43.97458" lon="5.13682">
        <ele>333.23</ele>
        <time>2017-05-08T09:11:41Z</time>
      </trkpt>
      <trkpt lat="43.97457" lon="5.13681">
        <ele>334.68</ele>
        <time>2017-05-08T09:12:04Z</time>
      </trkpt>
      <trkpt lat="43.97458" lon="5.1368">
        <ele>334.68</ele>
        <time>2017-05-08T09:12:28Z</time>
      </trkpt>
      <trkpt lat="43.97458" lon="5.1368">
        <ele>334.68</ele>
        <time>2017-05-08T09:12:29Z</time>
      </trkpt>
      <trkpt lat="43.97459" lon="5.13679">
        <ele>333.71</ele>
        <time>2017-05-08T09:12:33Z</time>
      </trkpt>
      <trkpt lat="43.9746" lon="5.13678">
        <ele>333.23</ele>
        <time>2017-05-08T09:12:55Z</time>
      </trkpt>
      <trkpt lat="43.9746" lon="5.13678">
        <ele>334.2</ele>
        <time>2017-05-08T09:13:08Z</time>
      </trkpt>
      <trkpt lat="43.97459" lon="5.13679">
        <ele>334.2</ele>
        <time>2017-05-08T09:13:23Z</time>
      </trkpt>
      <trkpt lat="43.9746" lon="5.13682">
        <ele>334.2</ele>
        <time>2017-05-08T09:13:44Z</time>
      </trkpt>
      <trkpt lat="43.9746" lon="5.13683">
        <ele>333.71</ele>
        <time>2017-05-08T09:14:09Z</time>
      </trkpt>
      <trkpt lat="43.97457" lon="5.1368">
        <ele>333.23</ele>
        <time>2017-05-08T09:14:36Z</time>
      </trkpt>
      <trkpt lat="43.97438" lon="5.1368">
        <ele>336.6</ele>
        <time>2017-05-08T09:14:57Z</time>
      </trkpt>
      <trkpt lat="43.97424" lon="5.13683">
        <ele>338.52</ele>
        <time>2017-05-08T09:15:14Z</time>
      </trkpt>
      <trkpt lat="43.97409" lon="5.13686">
        <ele>340.92</ele>
        <time>2017-05-08T09:15:31Z</time>
      </trkpt>
      <trkpt lat="43.97398" lon="5.13689">
        <ele>342.85</ele>
        <time>2017-05-08T09:15:49Z</time>
      </trkpt>
      <trkpt lat="43.9739" lon="5.13691">
        <ele>344.77</ele>
        <time>2017-05-08T09:16:02Z</time>
      </trkpt>
      <trkpt lat="43.97376" lon="5.13698">
        <ele>346.21</ele>
        <time>2017-05-08T09:16:21Z</time>
      </trkpt>
      <trkpt lat="43.97364" lon="5.13702">
        <ele>349.1</ele>
        <time>2017-05-08T09:16:36Z</time>
      </trkpt>
      <trkpt lat="43.9735" lon="5.13703">
        <ele>350.54</ele>
        <time>2017-05-08T09:16:53Z</time>
      </trkpt>
      <trkpt lat="43.97335" lon="5.13705">
        <ele>351.5</ele>
        <time>2017-05-08T09:17:10Z</time>
      </trkpt>
      <trkpt lat="43.97322" lon="5.13708">
        <ele>353.9</ele>
        <time>2017-05-08T09:17:26Z</time>
      </trkpt>
      <trkpt lat="43.97309" lon="5.13712">
        <ele>355.83</ele>
        <time>2017-05-08T09:17:43Z</time>
      </trkpt>
      <trkpt lat="43.97296" lon="5.13717">
        <ele>356.79</ele>
        <time>2017-05-08T09:17:58Z</time>
      </trkpt>
      <trkpt lat="43.97283" lon="5.13723">
        <ele>358.23</ele>
        <time>2017-05-08T09:18:14Z</time>
      </trkpt>
      <trkpt lat="43.9727" lon="5.13726">
        <ele>359.19</ele>
        <time>2017-05-08T09:18:29Z</time>
      </trkpt>
      <trkpt lat="43.97263" lon="5.13728">
        <ele>360.63</ele>
        <time>2017-05-08T09:18:43Z</time>
      </trkpt>
      <trkpt lat="43.97266" lon="5.13728">
        <ele>360.15</ele>
        <time>2017-05-08T09:19:06Z</time>
      </trkpt>
      <trkpt lat="43.97267" lon="5.13728">
        <ele>360.15</ele>
        <time>2017-05-08T09:19:29Z</time>
      </trkpt>
      <trkpt lat="43.97265" lon="5.1373">
        <ele>361.59</ele>
        <time>2017-05-08T09:19:49Z</time>
      </trkpt>
      <trkpt lat="43.97265" lon="5.13729">
        <ele>361.59</ele>
        <time>2017-05-08T09:20:12Z</time>
      </trkpt>
      <trkpt lat="43.97263" lon="5.13729">
        <ele>361.59</ele>
        <time>2017-05-08T09:20:38Z</time>
      </trkpt>
      <trkpt lat="43.97259" lon="5.1373">
        <ele>361.59</ele>
        <time>2017-05-08T09:21:02Z</time>
      </trkpt>
      <trkpt lat="43.97246" lon="5.13731">
        <ele>363.04</ele>
        <time>2017-05-08T09:21:19Z</time>
      </trkpt>
      <trkpt lat="43.97236" lon="5.13733">
        <ele>364.96</ele>
        <time>2017-05-08T09:21:35Z</time>
      </trkpt>
      <trkpt lat="43.97225" lon="5.13735">
        <ele>366.88</ele>
        <time>2017-05-08T09:21:50Z</time>
      </trkpt>
      <trkpt lat="43.97214" lon="5.13738">
        <ele>368.8</ele>
        <time>2017-05-08T09:22:06Z</time>
      </trkpt>
      <trkpt lat="43.97201" lon="5.13738">
        <ele>371.21</ele>
        <time>2017-05-08T09:22:23Z</time>
      </trkpt>
      <trkpt lat="43.97188" lon="5.13737">
        <ele>374.09</ele>
        <time>2017-05-08T09:22:40Z</time>
      </trkpt>
      <trkpt lat="43.97175" lon="5.13739">
        <ele>376.97</ele>
        <time>2017-05-08T09:22:58Z</time>
      </trkpt>
      <trkpt lat="43.97163" lon="5.13738">
        <ele>378.9</ele>
        <time>2017-05-08T09:23:16Z</time>
      </trkpt>
      <trkpt lat="43.97157" lon="5.13744">
        <ele>380.34</ele>
        <time>2017-05-08T09:23:30Z</time>
      </trkpt>
      <trkpt lat="43.97154" lon="5.13757">
        <ele>384.18</ele>
        <time>2017-05-08T09:23:47Z</time>
      </trkpt>
      <trkpt lat="43.97153" lon="5.13757">
        <ele>384.18</ele>
        <time>2017-05-08T09:23:48Z</time>
      </trkpt>
      <trkpt lat="43.97145" lon="5.13758">
        <ele>385.15</ele>
        <time>2017-05-08T09:24:03Z</time>
      </trkpt>
      <trkpt lat="43.97135" lon="5.13753">
        <ele>387.07</ele>
        <time>2017-05-08T09:24:19Z</time>
      </trkpt>
      <trkpt lat="43.97123" lon="5.13766">
        <ele>388.99</ele>
        <time>2017-05-08T09:24:39Z</time>
      </trkpt>
      <trkpt lat="43.97119" lon="5.13781">
        <ele>390.91</ele>
        <time>2017-05-08T09:24:55Z</time>
      </trkpt>
      <trkpt lat="43.97125" lon="5.13794">
        <ele>392.84</ele>
        <time>2017-05-08T09:25:14Z</time>
      </trkpt>
      <trkpt lat="43.97128" lon="5.13794">
        <ele>393.32</ele>
        <time>2017-05-08T09:25:34Z</time>
      </trkpt>
      <trkpt lat="43.97127" lon="5.13792">
        <ele>392.84</ele>
        <time>2017-05-08T09:25:52Z</time>
      </trkpt>
      <trkpt lat="43.97126" lon="5.1379">
        <ele>392.84</ele>
        <time>2017-05-08T09:26:27Z</time>
      </trkpt>
      <trkpt lat="43.97124" lon="5.13787">
        <ele>392.84</ele>
        <time>2017-05-08T09:26:53Z</time>
      </trkpt>
      <trkpt lat="43.97125" lon="5.13789">
        <ele>394.28</ele>
        <time>2017-05-08T09:27:23Z</time>
      </trkpt>
      <trkpt lat="43.97126" lon="5.13789">
        <ele>393.32</ele>
        <time>2017-05-08T09:27:48Z</time>
      </trkpt>
      <trkpt lat="43.97126" lon="5.1379">
        <ele>394.76</ele>
        <time>2017-05-08T09:28:14Z</time>
      </trkpt>
      <trkpt lat="43.97126" lon="5.13788">
        <ele>395.24</ele>
        <time>2017-05-08T09:28:40Z</time>
      </trkpt>
      <trkpt lat="43.97126" lon="5.13787">
        <ele>395.72</ele>
        <time>2017-05-08T09:29:14Z</time>
      </trkpt>
      <trkpt lat="43.97126" lon="5.1379">
        <ele>395.72</ele>
        <time>2017-05-08T09:29:46Z</time>
      </trkpt>
      <trkpt lat="43.97126" lon="5.13789">
        <ele>395.24</ele>
        <time>2017-05-08T09:29:56Z</time>
      </trkpt>
      <trkpt lat="43.97125" lon="5.13791">
        <ele>395.72</ele>
        <time>2017-05-08T09:30:22Z</time>
      </trkpt>
      <trkpt lat="43.97126" lon="5.13791">
        <ele>395.24</ele>
        <time>2017-05-08T09:31:02Z</time>
      </trkpt>
      <trkpt lat="43.97127" lon="5.13791">
        <ele>395.24</ele>
        <time>2017-05-08T09:31:33Z</time>
      </trkpt>
      <trkpt lat="43.97129" lon="5.13796">
        <ele>395.24</ele>
        <time>2017-05-08T09:31:57Z</time>
      </trkpt>
      <trkpt lat="43.97137" lon="5.13815">
        <ele>395.24</ele>
        <time>2017-05-08T09:32:15Z</time>
      </trkpt>
      <trkpt lat="43.97148" lon="5.13835">
        <ele>395.24</ele>
        <time>2017-05-08T09:32:36Z</time>
      </trkpt>
      <trkpt lat="43.9716" lon="5.13853">
        <ele>398.12</ele>
        <time>2017-05-08T09:32:56Z</time>
      </trkpt>
      <trkpt lat="43.9717" lon="5.13872">
        <ele>399.08</ele>
        <time>2017-05-08T09:33:14Z</time>
      </trkpt>
      <trkpt lat="43.97161" lon="5.13891">
        <ele>401.01</ele>
        <time>2017-05-08T09:33:33Z</time>
      </trkpt>
      <trkpt lat="43.97151" lon="5.13901">
        <ele>402.93</ele>
        <time>2017-05-08T09:33:50Z</time>
      </trkpt>
      <trkpt lat="43.97141" lon="5.13905">
        <ele>404.37</ele>
        <time>2017-05-08T09:34:06Z</time>
      </trkpt>
      <trkpt lat="43.97135" lon="5.13896">
        <ele>405.81</ele>
        <time>2017-05-08T09:34:21Z</time>
      </trkpt>
      <trkpt lat="43.97133" lon="5.13893">
        <ele>407.74</ele>
        <time>2017-05-08T09:34:27Z</time>
      </trkpt>
      <trkpt lat="43.97126" lon="5.13881">
        <ele>409.18</ele>
        <time>2017-05-08T09:34:43Z</time>
      </trkpt>
      <trkpt lat="43.97117" lon="5.13869">
        <ele>410.62</ele>
        <time>2017-05-08T09:34:59Z</time>
      </trkpt>
      <trkpt lat="43.97101" lon="5.13863">
        <ele>412.54</ele>
        <time>2017-05-08T09:35:19Z</time>
      </trkpt>
      <trkpt lat="43.97088" lon="5.13867">
        <ele>414.47</ele>
        <time>2017-05-08T09:35:35Z</time>
      </trkpt>
      <trkpt lat="43.97079" lon="5.13861">
        <ele>414.47</ele>
        <time>2017-05-08T09:35:51Z</time>
      </trkpt>
      <trkpt lat="43.97066" lon="5.13856">
        <ele>416.39</ele>
        <time>2017-05-08T09:36:09Z</time>
      </trkpt>
      <trkpt lat="43.97063" lon="5.13856">
        <ele>414.95</ele>
        <time>2017-05-08T09:36:13Z</time>
      </trkpt>
      <trkpt lat="43.97059" lon="5.13855">
        <ele>417.83</ele>
        <time>2017-05-08T09:36:19Z</time>
      </trkpt>
      <trkpt lat="43.97056" lon="5.13856">
        <ele>416.39</ele>
        <time>2017-05-08T09:36:22Z</time>
      </trkpt>
      <trkpt lat="43.9705" lon="5.13857">
        <ele>416.39</ele>
        <time>2017-05-08T09:36:29Z</time>
      </trkpt>
      <trkpt lat="43.97034" lon="5.13863">
        <ele>416.39</ele>
        <time>2017-05-08T09:36:46Z</time>
      </trkpt>
      <trkpt lat="43.97025" lon="5.13866">
        <ele>417.83</ele>
        <time>2017-05-08T09:36:59Z</time>
      </trkpt>
      <trkpt lat="43.97008" lon="5.13872">
        <ele>418.79</ele>
        <time>2017-05-08T09:37:16Z</time>
      </trkpt>
      <trkpt lat="43.96991" lon="5.13877">
        <ele>419.27</ele>
        <time>2017-05-08T09:37:34Z</time>
      </trkpt>
      <trkpt lat="43.96977" lon="5.13883">
        <ele>420.23</ele>
        <time>2017-05-08T09:37:51Z</time>
      </trkpt>
      <trkpt lat="43.96965" lon="5.13889">
        <ele>421.19</ele>
        <time>2017-05-08T09:38:07Z</time>
      </trkpt>
      <trkpt lat="43.96948" lon="5.13897">
        <ele>421.19</ele>
        <time>2017-05-08T09:38:24Z</time>
      </trkpt>
      <trkpt lat="43.9693" lon="5.13905">
        <ele>422.16</ele>
        <time>2017-05-08T09:38:44Z</time>
      </trkpt>
      <trkpt lat="43.96927" lon="5.13905">
        <ele>422.16</ele>
        <time>2017-05-08T09:38:52Z</time>
      </trkpt>
      <trkpt lat="43.96929" lon="5.13908">
        <ele>422.64</ele>
        <time>2017-05-08T09:39:17Z</time>
      </trkpt>
      <trkpt lat="43.96929" lon="5.13906">
        <ele>423.12</ele>
        <time>2017-05-08T09:39:42Z</time>
      </trkpt>
      <trkpt lat="43.96921" lon="5.13908">
        <ele>423.12</ele>
        <time>2017-05-08T09:39:51Z</time>
      </trkpt>
      <trkpt lat="43.96916" lon="5.13911">
        <ele>421.68</ele>
        <time>2017-05-08T09:40:00Z</time>
      </trkpt>
      <trkpt lat="43.96911" lon="5.13914">
        <ele>420.71</ele>
        <time>2017-05-08T09:40:15Z</time>
      </trkpt>
      <trkpt lat="43.96911" lon="5.13915">
        <ele>420.23</ele>
        <time>2017-05-08T09:40:33Z</time>
      </trkpt>
      <trkpt lat="43.96911" lon="5.13915">
        <ele>422.64</ele>
        <time>2017-05-08T09:40:37Z</time>
      </trkpt>
      <trkpt lat="43.9691" lon="5.13915">
        <ele>421.19</ele>
        <time>2017-05-08T09:40:40Z</time>
      </trkpt>
      <trkpt lat="43.96907" lon="5.13915">
        <ele>421.68</ele>
        <time>2017-05-08T09:40:49Z</time>
      </trkpt>
      <trkpt lat="43.96896" lon="5.13917">
        <ele>420.23</ele>
        <time>2017-05-08T09:41:01Z</time>
      </trkpt>
      <trkpt lat="43.96887" lon="5.13917">
        <ele>420.23</ele>
        <time>2017-05-08T09:41:13Z</time>
      </trkpt>
      <trkpt lat="43.96881" lon="5.13917">
        <ele>421.19</ele>
        <time>2017-05-08T09:41:19Z</time>
      </trkpt>
      <trkpt lat="43.96875" lon="5.13918">
        <ele>419.75</ele>
        <time>2017-05-08T09:41:28Z</time>
      </trkpt>
      <trkpt lat="43.96864" lon="5.1392">
        <ele>417.83</ele>
        <time>2017-05-08T09:41:44Z</time>
      </trkpt>
      <trkpt lat="43.96862" lon="5.1392">
        <ele>419.75</ele>
        <time>2017-05-08T09:41:46Z</time>
      </trkpt>
      <trkpt lat="43.96861" lon="5.13921">
        <ele>418.31</ele>
        <time>2017-05-08T09:41:49Z</time>
      </trkpt>
      <trkpt lat="43.9685" lon="5.13925">
        <ele>415.91</ele>
        <time>2017-05-08T09:42:04Z</time>
      </trkpt>
      <trkpt lat="43.96849" lon="5.13925">
        <ele>417.83</ele>
        <time>2017-05-08T09:42:07Z</time>
      </trkpt>
      <trkpt lat="43.96843" lon="5.13926">
        <ele>415.91</ele>
        <time>2017-05-08T09:42:15Z</time>
      </trkpt>
      <trkpt lat="43.96832" lon="5.13925">
        <ele>415.43</ele>
        <time>2017-05-08T09:42:31Z</time>
      </trkpt>
      <trkpt lat="43.96821" lon="5.13923">
        <ele>414.47</ele>
        <time>2017-05-08T09:42:47Z</time>
      </trkpt>
      <trkpt lat="43.9681" lon="5.13924">
        <ele>413.5</ele>
        <time>2017-05-08T09:43:02Z</time>
      </trkpt>
      <trkpt lat="43.968" lon="5.13923">
        <ele>412.06</ele>
        <time>2017-05-08T09:43:18Z</time>
      </trkpt>
      <trkpt lat="43.96791" lon="5.13922">
        <ele>411.1</ele>
        <time>2017-05-08T09:43:33Z</time>
      </trkpt>
      <trkpt lat="43.96789" lon="5.13921">
        <ele>412.06</ele>
        <time>2017-05-08T09:43:43Z</time>
      </trkpt>
      <trkpt lat="43.96789" lon="5.13922">
        <ele>409.66</ele>
        <time>2017-05-08T09:43:52Z</time>
      </trkpt>
      <trkpt lat="43.96779" lon="5.13919">
        <ele>408.7</ele>
        <time>2017-05-08T09:44:08Z</time>
      </trkpt>
      <trkpt lat="43.9677" lon="5.13919">
        <ele>407.74</ele>
        <time>2017-05-08T09:44:23Z</time>
      </trkpt>
      <trkpt lat="43.96759" lon="5.13922">
        <ele>404.85</ele>
        <time>2017-05-08T09:44:37Z</time>
      </trkpt>
      <trkpt lat="43.96759" lon="5.13922">
        <ele>404.85</ele>
        <time>2017-05-08T09:44:38Z</time>
      </trkpt>
      <trkpt lat="43.96756" lon="5.13924">
        <ele>406.29</ele>
        <time>2017-05-08T09:44:41Z</time>
      </trkpt>
      <trkpt lat="43.96752" lon="5.13926">
        <ele>404.37</ele>
        <time>2017-05-08T09:44:46Z</time>
      </trkpt>
      <trkpt lat="43.96751" lon="5.13927">
        <ele>402.93</ele>
        <time>2017-05-08T09:44:48Z</time>
      </trkpt>
      <trkpt lat="43.96747" lon="5.13926">
        <ele>406.29</ele>
        <time>2017-05-08T09:44:52Z</time>
      </trkpt>
      <trkpt lat="43.96738" lon="5.13932">
        <ele>405.81</ele>
        <time>2017-05-08T09:45:07Z</time>
      </trkpt>
      <trkpt lat="43.96725" lon="5.13937">
        <ele>403.89</ele>
        <time>2017-05-08T09:45:24Z</time>
      </trkpt>
      <trkpt lat="43.96709" lon="5.13942">
        <ele>403.41</ele>
        <time>2017-05-08T09:45:41Z</time>
      </trkpt>
      <trkpt lat="43.96691" lon="5.13942">
        <ele>403.89</ele>
        <time>2017-05-08T09:45:58Z</time>
      </trkpt>
      <trkpt lat="43.96679" lon="5.13943">
        <ele>404.85</ele>
        <time>2017-05-08T09:46:14Z</time>
      </trkpt>
      <trkpt lat="43.96664" lon="5.13946">
        <ele>404.85</ele>
        <time>2017-05-08T09:46:32Z</time>
      </trkpt>
      <trkpt lat="43.9665" lon="5.13948">
        <ele>402.93</ele>
        <time>2017-05-08T09:46:46Z</time>
      </trkpt>
      <trkpt lat="43.96637" lon="5.13952">
        <ele>401.01</ele>
        <time>2017-05-08T09:47:02Z</time>
      </trkpt>
      <trkpt lat="43.96624" lon="5.13952">
        <ele>401.01</ele>
        <time>2017-05-08T09:47:18Z</time>
      </trkpt>
      <trkpt lat="43.9661" lon="5.13953">
        <ele>400.05</ele>
        <time>2017-05-08T09:47:35Z</time>
      </trkpt>
      <trkpt lat="43.96598" lon="5.13959">
        <ele>398.6</ele>
        <time>2017-05-08T09:47:51Z</time>
      </trkpt>
      <trkpt lat="43.96587" lon="5.13969">
        <ele>396.68</ele>
        <time>2017-05-08T09:48:08Z</time>
      </trkpt>
      <trkpt lat="43.96576" lon="5.13984">
        <ele>394.76</ele>
        <time>2017-05-08T09:48:25Z</time>
      </trkpt>
      <trkpt lat="43.96567" lon="5.14003">
        <ele>394.28</ele>
        <time>2017-05-08T09:48:42Z</time>
      </trkpt>
      <trkpt lat="43.96558" lon="5.14024">
        <ele>393.8</ele>
        <time>2017-05-08T09:49:01Z</time>
      </trkpt>
      <trkpt lat="43.96549" lon="5.14042">
        <ele>392.36</ele>
        <time>2017-05-08T09:49:19Z</time>
      </trkpt>
      <trkpt lat="43.96537" lon="5.14061">
        <ele>390.91</ele>
        <time>2017-05-08T09:49:39Z</time>
      </trkpt>
      <trkpt lat="43.96527" lon="5.14081">
        <ele>389.95</ele>
        <time>2017-05-08T09:49:56Z</time>
      </trkpt>
      <trkpt lat="43.96519" lon="5.14098">
        <ele>389.47</ele>
        <time>2017-05-08T09:50:13Z</time>
      </trkpt>
      <trkpt lat="43.96511" lon="5.14108">
        <ele>388.99</ele>
        <time>2017-05-08T09:50:30Z</time>
      </trkpt>
      <trkpt lat="43.96499" lon="5.14122">
        <ele>388.51</ele>
        <time>2017-05-08T09:50:47Z</time>
      </trkpt>
      <trkpt lat="43.96485" lon="5.14135">
        <ele>388.51</ele>
        <time>2017-05-08T09:51:05Z</time>
      </trkpt>
      <trkpt lat="43.96472" lon="5.14144">
        <ele>387.07</ele>
        <time>2017-05-08T09:51:23Z</time>
      </trkpt>
      <trkpt lat="43.96463" lon="5.14148">
        <ele>386.59</ele>
        <time>2017-05-08T09:51:40Z</time>
      </trkpt>
      <trkpt lat="43.9646" lon="5.14149">
        <ele>388.03</ele>
        <time>2017-05-08T09:51:58Z</time>
      </trkpt>
      <trkpt lat="43.96458" lon="5.14147">
        <ele>386.11</ele>
        <time>2017-05-08T09:52:19Z</time>
      </trkpt>
      <trkpt lat="43.9645" lon="5.14155">
        <ele>386.11</ele>
        <time>2017-05-08T09:52:34Z</time>
      </trkpt>
      <trkpt lat="43.96441" lon="5.14163">
        <ele>387.55</ele>
        <time>2017-05-08T09:52:51Z</time>
      </trkpt>
      <trkpt lat="43.96438" lon="5.14167">
        <ele>388.03</ele>
        <time>2017-05-08T09:53:11Z</time>
      </trkpt>
      <trkpt lat="43.96438" lon="5.14168">
        <ele>386.59</ele>
        <time>2017-05-08T09:53:22Z</time>
      </trkpt>
      <trkpt lat="43.96435" lon="5.14168">
        <ele>385.15</ele>
        <time>2017-05-08T09:53:43Z</time>
      </trkpt>
      <trkpt lat="43.96438" lon="5.14169">
        <ele>385.15</ele>
        <time>2017-05-08T09:54:08Z</time>
      </trkpt>
      <trkpt lat="43.96436" lon="5.14164">
        <ele>385.15</ele>
        <time>2017-05-08T09:54:38Z</time>
      </trkpt>
      <trkpt lat="43.96439" lon="5.14164">
        <ele>385.15</ele>
        <time>2017-05-08T09:55:09Z</time>
      </trkpt>
      <trkpt lat="43.96438" lon="5.14165">
        <ele>384.66</ele>
        <time>2017-05-08T09:55:32Z</time>
      </trkpt>
      <trkpt lat="43.96437" lon="5.14164">
        <ele>384.66</ele>
        <time>2017-05-08T09:55:57Z</time>
      </trkpt>
      <trkpt lat="43.96441" lon="5.14166">
        <ele>384.66</ele>
        <time>2017-05-08T09:56:21Z</time>
      </trkpt>
      <trkpt lat="43.96442" lon="5.14163">
        <ele>384.66</ele>
        <time>2017-05-08T09:56:44Z</time>
      </trkpt>
      <trkpt lat="43.96442" lon="5.14165">
        <ele>384.66</ele>
        <time>2017-05-08T09:57:12Z</time>
      </trkpt>
      <trkpt lat="43.96439" lon="5.14164">
        <ele>384.66</ele>
        <time>2017-05-08T09:57:38Z</time>
      </trkpt>
      <trkpt lat="43.96438" lon="5.14165">
        <ele>386.59</ele>
        <time>2017-05-08T09:58:05Z</time>
      </trkpt>
      <trkpt lat="43.96439" lon="5.14165">
        <ele>385.15</ele>
        <time>2017-05-08T09:58:10Z</time>
      </trkpt>
      <trkpt lat="43.96439" lon="5.14166">
        <ele>384.66</ele>
        <time>2017-05-08T09:58:31Z</time>
      </trkpt>
      <trkpt lat="43.96439" lon="5.14165">
        <ele>384.18</ele>
        <time>2017-05-08T09:58:50Z</time>
      </trkpt>
      <trkpt lat="43.9644" lon="5.14165">
        <ele>384.18</ele>
        <time>2017-05-08T09:59:13Z</time>
      </trkpt>
      <trkpt lat="43.96439" lon="5.14164">
        <ele>385.63</ele>
        <time>2017-05-08T09:59:23Z</time>
      </trkpt>
      <trkpt lat="43.96437" lon="5.14162">
        <ele>385.63</ele>
        <time>2017-05-08T09:59:47Z</time>
      </trkpt>
      <trkpt lat="43.96439" lon="5.14166">
        <ele>385.63</ele>
        <time>2017-05-08T10:00:12Z</time>
      </trkpt>
      <trkpt lat="43.96441" lon="5.14166">
        <ele>385.63</ele>
        <time>2017-05-08T10:00:32Z</time>
      </trkpt>
      <trkpt lat="43.9644" lon="5.14165">
        <ele>386.11</ele>
        <time>2017-05-08T10:00:51Z</time>
      </trkpt>
      <trkpt lat="43.96439" lon="5.14166">
        <ele>386.11</ele>
        <time>2017-05-08T10:01:11Z</time>
      </trkpt>
      <trkpt lat="43.96439" lon="5.14168">
        <ele>386.11</ele>
        <time>2017-05-08T10:01:28Z</time>
      </trkpt>
      <trkpt lat="43.96439" lon="5.14168">
        <ele>386.11</ele>
        <time>2017-05-08T10:01:45Z</time>
      </trkpt>
      <trkpt lat="43.96442" lon="5.14169">
        <ele>386.11</ele>
        <time>2017-05-08T10:02:09Z</time>
      </trkpt>
      <trkpt lat="43.96443" lon="5.14171">
        <ele>386.11</ele>
        <time>2017-05-08T10:02:37Z</time>
      </trkpt>
      <trkpt lat="43.96443" lon="5.14172">
        <ele>386.11</ele>
        <time>2017-05-08T10:02:56Z</time>
      </trkpt>
      <trkpt lat="43.96439" lon="5.14171">
        <ele>385.63</ele>
        <time>2017-05-08T10:03:33Z</time>
      </trkpt>
      <trkpt lat="43.96438" lon="5.14169">
        <ele>385.63</ele>
        <time>2017-05-08T10:03:52Z</time>
      </trkpt>
      <trkpt lat="43.96439" lon="5.14169">
        <ele>384.66</ele>
        <time>2017-05-08T10:04:05Z</time>
      </trkpt>
      <trkpt lat="43.96439" lon="5.14169">
        <ele>386.11</ele>
        <time>2017-05-08T10:04:12Z</time>
      </trkpt>
      <trkpt lat="43.96438" lon="5.14166">
        <ele>386.11</ele>
        <time>2017-05-08T10:04:39Z</time>
      </trkpt>
      <trkpt lat="43.96437" lon="5.14165">
        <ele>386.11</ele>
        <time>2017-05-08T10:05:02Z</time>
      </trkpt>
      <trkpt lat="43.96438" lon="5.14167">
        <ele>386.11</ele>
        <time>2017-05-08T10:05:29Z</time>
      </trkpt>
      <trkpt lat="43.9644" lon="5.14169">
        <ele>386.11</ele>
        <time>2017-05-08T10:06:01Z</time>
      </trkpt>
      <trkpt lat="43.96441" lon="5.14166">
        <ele>386.11</ele>
        <time>2017-05-08T10:06:28Z</time>
      </trkpt>
      <trkpt lat="43.96441" lon="5.14166">
        <ele>386.11</ele>
        <time>2017-05-08T10:06:52Z</time>
      </trkpt>
      <trkpt lat="43.9644" lon="5.14166">
        <ele>386.11</ele>
        <time>2017-05-08T10:07:22Z</time>
      </trkpt>
      <trkpt lat="43.9644" lon="5.14164">
        <ele>386.59</ele>
        <time>2017-05-08T10:07:48Z</time>
      </trkpt>
      <trkpt lat="43.9644" lon="5.14164">
        <ele>386.59</ele>
        <time>2017-05-08T10:08:14Z</time>
      </trkpt>
      <trkpt lat="43.96442" lon="5.14166">
        <ele>386.59</ele>
        <time>2017-05-08T10:08:43Z</time>
      </trkpt>
      <trkpt lat="43.96443" lon="5.14165">
        <ele>386.59</ele>
        <time>2017-05-08T10:09:10Z</time>
      </trkpt>
      <trkpt lat="43.96443" lon="5.14164">
        <ele>387.07</ele>
        <time>2017-05-08T10:09:31Z</time>
      </trkpt>
      <trkpt lat="43.96442" lon="5.14164">
        <ele>387.07</ele>
        <time>2017-05-08T10:09:52Z</time>
      </trkpt>
      <trkpt lat="43.96443" lon="5.14166">
        <ele>387.07</ele>
        <time>2017-05-08T10:10:20Z</time>
      </trkpt>
      <trkpt lat="43.96441" lon="5.14164">
        <ele>387.55</ele>
        <time>2017-05-08T10:10:42Z</time>
      </trkpt>
      <trkpt lat="43.96441" lon="5.14165">
        <ele>386.11</ele>
        <time>2017-05-08T10:11:03Z</time>
      </trkpt>
      <trkpt lat="43.96441" lon="5.14166">
        <ele>386.11</ele>
        <time>2017-05-08T10:11:36Z</time>
      </trkpt>
      <trkpt lat="43.9644" lon="5.14166">
        <ele>386.11</ele>
        <time>2017-05-08T10:12:01Z</time>
      </trkpt>
      <trkpt lat="43.96443" lon="5.14167">
        <ele>386.11</ele>
        <time>2017-05-08T10:12:30Z</time>
      </trkpt>
      <trkpt lat="43.96444" lon="5.1417">
        <ele>386.59</ele>
        <time>2017-05-08T10:12:59Z</time>
      </trkpt>
      <trkpt lat="43.96445" lon="5.1417">
        <ele>386.59</ele>
        <time>2017-05-08T10:13:28Z</time>
      </trkpt>
      <trkpt lat="43.96443" lon="5.14168">
        <ele>385.63</ele>
        <time>2017-05-08T10:13:48Z</time>
      </trkpt>
      <trkpt lat="43.96439" lon="5.14165">
        <ele>385.63</ele>
        <time>2017-05-08T10:14:13Z</time>
      </trkpt>
      <trkpt lat="43.96437" lon="5.14166">
        <ele>387.07</ele>
        <time>2017-05-08T10:14:37Z</time>
      </trkpt>
      <trkpt lat="43.9644" lon="5.14165">
        <ele>387.07</ele>
        <time>2017-05-08T10:15:10Z</time>
      </trkpt>
      <trkpt lat="43.96441" lon="5.14165">
        <ele>387.07</ele>
        <time>2017-05-08T10:15:38Z</time>
      </trkpt>
      <trkpt lat="43.96441" lon="5.14167">
        <ele>387.07</ele>
        <time>2017-05-08T10:16:08Z</time>
      </trkpt>
      <trkpt lat="43.96441" lon="5.14168">
        <ele>387.07</ele>
        <time>2017-05-08T10:16:32Z</time>
      </trkpt>
      <trkpt lat="43.96442" lon="5.14168">
        <ele>388.03</ele>
        <time>2017-05-08T10:16:52Z</time>
      </trkpt>
      <trkpt lat="43.9644" lon="5.14168">
        <ele>388.03</ele>
        <time>2017-05-08T10:17:19Z</time>
      </trkpt>
      <trkpt lat="43.96439" lon="5.1417">
        <ele>388.03</ele>
        <time>2017-05-08T10:17:45Z</time>
      </trkpt>
      <trkpt lat="43.96438" lon="5.1417">
        <ele>388.51</ele>
        <time>2017-05-08T10:18:14Z</time>
      </trkpt>
      <trkpt lat="43.96436" lon="5.14172">
        <ele>388.51</ele>
        <time>2017-05-08T10:18:42Z</time>
      </trkpt>
      <trkpt lat="43.96443" lon="5.14173">
        <ele>387.07</ele>
        <time>2017-05-08T10:19:07Z</time>
      </trkpt>
      <trkpt lat="43.96442" lon="5.14173">
        <ele>387.07</ele>
        <time>2017-05-08T10:19:38Z</time>
      </trkpt>
      <trkpt lat="43.96441" lon="5.14175">
        <ele>386.59</ele>
        <time>2017-05-08T10:20:12Z</time>
      </trkpt>
      <trkpt lat="43.96441" lon="5.14175">
        <ele>387.07</ele>
        <time>2017-05-08T10:20:38Z</time>
      </trkpt>
      <trkpt lat="43.96441" lon="5.14171">
        <ele>388.03</ele>
        <time>2017-05-08T10:21:11Z</time>
      </trkpt>
      <trkpt lat="43.9644" lon="5.14171">
        <ele>388.51</ele>
        <time>2017-05-08T10:21:51Z</time>
      </trkpt>
      <trkpt lat="43.96436" lon="5.14168">
        <ele>388.51</ele>
        <time>2017-05-08T10:22:20Z</time>
      </trkpt>
      <trkpt lat="43.96436" lon="5.14166">
        <ele>389.47</ele>
        <time>2017-05-08T10:22:56Z</time>
      </trkpt>
      <trkpt lat="43.96438" lon="5.14168">
        <ele>389.47</ele>
        <time>2017-05-08T10:23:25Z</time>
      </trkpt>
      <trkpt lat="43.96439" lon="5.1417">
        <ele>388.03</ele>
        <time>2017-05-08T10:23:32Z</time>
      </trkpt>
      <trkpt lat="43.96441" lon="5.14171">
        <ele>389.47</ele>
        <time>2017-05-08T10:23:43Z</time>
      </trkpt>
      <trkpt lat="43.96443" lon="5.14171">
        <ele>389.47</ele>
        <time>2017-05-08T10:24:02Z</time>
      </trkpt>
      <trkpt lat="43.9644" lon="5.1417">
        <ele>389.47</ele>
        <time>2017-05-08T10:24:29Z</time>
      </trkpt>
      <trkpt lat="43.96439" lon="5.1417">
        <ele>389.47</ele>
        <time>2017-05-08T10:24:54Z</time>
      </trkpt>
      <trkpt lat="43.9644" lon="5.14167">
        <ele>389.47</ele>
        <time>2017-05-08T10:25:28Z</time>
      </trkpt>
      <trkpt lat="43.96442" lon="5.14165">
        <ele>389.47</ele>
        <time>2017-05-08T10:25:57Z</time>
      </trkpt>
      <trkpt lat="43.96443" lon="5.14164">
        <ele>389.47</ele>
        <time>2017-05-08T10:26:23Z</time>
      </trkpt>
      <trkpt lat="43.96441" lon="5.14165">
        <ele>388.03</ele>
        <time>2017-05-08T10:26:47Z</time>
      </trkpt>
      <trkpt lat="43.96442" lon="5.14165">
        <ele>387.55</ele>
        <time>2017-05-08T10:27:13Z</time>
      </trkpt>
      <trkpt lat="43.96442" lon="5.14162">
        <ele>387.55</ele>
        <time>2017-05-08T10:27:37Z</time>
      </trkpt>
      <trkpt lat="43.9644" lon="5.14166">
        <ele>387.55</ele>
        <time>2017-05-08T10:27:57Z</time>
      </trkpt>
      <trkpt lat="43.96439" lon="5.14165">
        <ele>388.51</ele>
        <time>2017-05-08T10:28:02Z</time>
      </trkpt>
      <trkpt lat="43.96441" lon="5.14164">
        <ele>389.47</ele>
        <time>2017-05-08T10:28:36Z</time>
      </trkpt>
      <trkpt lat="43.96442" lon="5.14163">
        <ele>388.03</ele>
        <time>2017-05-08T10:28:52Z</time>
      </trkpt>
      <trkpt lat="43.96444" lon="5.14165">
        <ele>387.55</ele>
        <time>2017-05-08T10:29:15Z</time>
      </trkpt>
      <trkpt lat="43.96443" lon="5.14166">
        <ele>387.55</ele>
        <time>2017-05-08T10:29:32Z</time>
      </trkpt>
      <trkpt lat="43.96442" lon="5.14164">
        <ele>387.07</ele>
        <time>2017-05-08T10:30:02Z</time>
      </trkpt>
      <trkpt lat="43.96444" lon="5.14162">
        <ele>388.99</ele>
        <time>2017-05-08T10:30:31Z</time>
      </trkpt>
      <trkpt lat="43.96446" lon="5.14165">
        <ele>388.99</ele>
        <time>2017-05-08T10:30:59Z</time>
      </trkpt>
      <trkpt lat="43.96444" lon="5.14164">
        <ele>388.99</ele>
        <time>2017-05-08T10:31:32Z</time>
      </trkpt>
      <trkpt lat="43.96443" lon="5.14166">
        <ele>389.47</ele>
        <time>2017-05-08T10:32:00Z</time>
      </trkpt>
      <trkpt lat="43.96441" lon="5.14166">
        <ele>389.47</ele>
        <time>2017-05-08T10:32:23Z</time>
      </trkpt>
      <trkpt lat="43.96441" lon="5.14165">
        <ele>389.47</ele>
        <time>2017-05-08T10:32:45Z</time>
      </trkpt>
      <trkpt lat="43.96445" lon="5.14167">
        <ele>389.47</ele>
        <time>2017-05-08T10:33:12Z</time>
      </trkpt>
      <trkpt lat="43.96444" lon="5.14166">
        <ele>389.47</ele>
        <time>2017-05-08T10:33:34Z</time>
      </trkpt>
      <trkpt lat="43.96441" lon="5.14168">
        <ele>389.47</ele>
        <time>2017-05-08T10:33:58Z</time>
      </trkpt>
      <trkpt lat="43.96444" lon="5.14166">
        <ele>389.47</ele>
        <time>2017-05-08T10:34:26Z</time>
      </trkpt>
      <trkpt lat="43.96447" lon="5.14165">
        <ele>390.43</ele>
        <time>2017-05-08T10:34:58Z</time>
      </trkpt>
      <trkpt lat="43.96448" lon="5.14166">
        <ele>390.43</ele>
        <time>2017-05-08T10:35:32Z</time>
      </trkpt>
      <trkpt lat="43.96447" lon="5.14165">
        <ele>390.43</ele>
        <time>2017-05-08T10:36:05Z</time>
      </trkpt>
      <trkpt lat="43.96446" lon="5.14162">
        <ele>390.91</ele>
        <time>2017-05-08T10:36:30Z</time>
      </trkpt>
      <trkpt lat="43.96448" lon="5.14163">
        <ele>390.91</ele>
        <time>2017-05-08T10:37:02Z</time>
      </trkpt>
      <trkpt lat="43.96446" lon="5.14164">
        <ele>390.91</ele>
        <time>2017-05-08T10:37:25Z</time>
      </trkpt>
      <trkpt lat="43.96446" lon="5.14164">
        <ele>390.91</ele>
        <time>2017-05-08T10:37:56Z</time>
      </trkpt>
      <trkpt lat="43.96446" lon="5.14166">
        <ele>391.87</ele>
        <time>2017-05-08T10:38:16Z</time>
      </trkpt>
      <trkpt lat="43.9644" lon="5.14171">
        <ele>392.36</ele>
        <time>2017-05-08T10:38:32Z</time>
      </trkpt>
      <trkpt lat="43.96436" lon="5.14173">
        <ele>392.84</ele>
        <time>2017-05-08T10:38:51Z</time>
      </trkpt>
      <trkpt lat="43.96433" lon="5.14172">
        <ele>392.84</ele>
        <time>2017-05-08T10:39:09Z</time>
      </trkpt>
      <trkpt lat="43.96429" lon="5.14168">
        <ele>393.32</ele>
        <time>2017-05-08T10:39:23Z</time>
      </trkpt>
      <trkpt lat="43.96424" lon="5.14162">
        <ele>393.32</ele>
        <time>2017-05-08T10:39:37Z</time>
      </trkpt>
      <trkpt lat="43.96418" lon="5.14159">
        <ele>394.28</ele>
        <time>2017-05-08T10:39:52Z</time>
      </trkpt>
      <trkpt lat="43.9641" lon="5.14156">
        <ele>395.24</ele>
        <time>2017-05-08T10:40:09Z</time>
      </trkpt>
      <trkpt lat="43.96402" lon="5.1416">
        <ele>397.64</ele>
        <time>2017-05-08T10:40:24Z</time>
      </trkpt>
      <trkpt lat="43.96396" lon="5.14165">
        <ele>400.05</ele>
        <time>2017-05-08T10:40:38Z</time>
      </trkpt>
      <trkpt lat="43.9639" lon="5.14174">
        <ele>401.49</ele>
        <time>2017-05-08T10:40:51Z</time>
      </trkpt>
      <trkpt lat="43.96386" lon="5.1418">
        <ele>403.41</ele>
        <time>2017-05-08T10:41:06Z</time>
      </trkpt>
      <trkpt lat="43.9638" lon="5.14187">
        <ele>405.81</ele>
        <time>2017-05-08T10:41:22Z</time>
      </trkpt>
      <trkpt lat="43.96372" lon="5.14193">
        <ele>407.74</ele>
        <time>2017-05-08T10:41:38Z</time>
      </trkpt>
      <trkpt lat="43.96363" lon="5.142">
        <ele>410.14</ele>
        <time>2017-05-08T10:41:52Z</time>
      </trkpt>
      <trkpt lat="43.96356" lon="5.14207">
        <ele>412.06</ele>
        <time>2017-05-08T10:42:06Z</time>
      </trkpt>
      <trkpt lat="43.9635" lon="5.14206">
        <ele>413.5</ele>
        <time>2017-05-08T10:42:20Z</time>
      </trkpt>
      <trkpt lat="43.96343" lon="5.14206">
        <ele>416.39</ele>
        <time>2017-05-08T10:42:34Z</time>
      </trkpt>
      <trkpt lat="43.96334" lon="5.14208">
        <ele>419.27</ele>
        <time>2017-05-08T10:42:52Z</time>
      </trkpt>
      <trkpt lat="43.96325" lon="5.14213">
        <ele>421.19</ele>
        <time>2017-05-08T10:43:08Z</time>
      </trkpt>
      <trkpt lat="43.96316" lon="5.14219">
        <ele>423.6</ele>
        <time>2017-05-08T10:43:24Z</time>
      </trkpt>
      <trkpt lat="43.96308" lon="5.14223">
        <ele>425.04</ele>
        <time>2017-05-08T10:43:39Z</time>
      </trkpt>
      <trkpt lat="43.96294" lon="5.14224">
        <ele>426.48</ele>
        <time>2017-05-08T10:43:56Z</time>
      </trkpt>
      <trkpt lat="43.96286" lon="5.1423">
        <ele>428.4</ele>
        <time>2017-05-08T10:44:10Z</time>
      </trkpt>
      <trkpt lat="43.96278" lon="5.14247">
        <ele>430.33</ele>
        <time>2017-05-08T10:44:27Z</time>
      </trkpt>
      <trkpt lat="43.96271" lon="5.14259">
        <ele>432.25</ele>
        <time>2017-05-08T10:44:43Z</time>
      </trkpt>
      <trkpt lat="43.96265" lon="5.14268">
        <ele>432.73</ele>
        <time>2017-05-08T10:44:59Z</time>
      </trkpt>
      <trkpt lat="43.9626" lon="5.14278">
        <ele>433.69</ele>
        <time>2017-05-08T10:45:22Z</time>
      </trkpt>
      <trkpt lat="43.96256" lon="5.14289">
        <ele>435.61</ele>
        <time>2017-05-08T10:45:35Z</time>
      </trkpt>
      <trkpt lat="43.9625" lon="5.14299">
        <ele>437.54</ele>
        <time>2017-05-08T10:45:50Z</time>
      </trkpt>
      <trkpt lat="43.96244" lon="5.14312">
        <ele>439.46</ele>
        <time>2017-05-08T10:46:04Z</time>
      </trkpt>
      <trkpt lat="43.96239" lon="5.14322">
        <ele>440.9</ele>
        <time>2017-05-08T10:46:18Z</time>
      </trkpt>
      <trkpt lat="43.96235" lon="5.14331">
        <ele>443.79</ele>
        <time>2017-05-08T10:46:33Z</time>
      </trkpt>
      <trkpt lat="43.96232" lon="5.14343">
        <ele>445.71</ele>
        <time>2017-05-08T10:46:52Z</time>
      </trkpt>
      <trkpt lat="43.9623" lon="5.1435">
        <ele>447.63</ele>
        <time>2017-05-08T10:47:07Z</time>
      </trkpt>
      <trkpt lat="43.96227" lon="5.14357">
        <ele>450.03</ele>
        <time>2017-05-08T10:47:23Z</time>
      </trkpt>
      <trkpt lat="43.96222" lon="5.14361">
        <ele>451.48</ele>
        <time>2017-05-08T10:47:37Z</time>
      </trkpt>
      <trkpt lat="43.96221" lon="5.14353">
        <ele>453.88</ele>
        <time>2017-05-08T10:47:55Z</time>
      </trkpt>
      <trkpt lat="43.96216" lon="5.14353">
        <ele>453.88</ele>
        <time>2017-05-08T10:48:10Z</time>
      </trkpt>
      <trkpt lat="43.96213" lon="5.14354">
        <ele>452.92</ele>
        <time>2017-05-08T10:48:23Z</time>
      </trkpt>
      <trkpt lat="43.96209" lon="5.14357">
        <ele>452.44</ele>
        <time>2017-05-08T10:48:40Z</time>
      </trkpt>
      <trkpt lat="43.96206" lon="5.14356">
        <ele>454.36</ele>
        <time>2017-05-08T10:49:05Z</time>
      </trkpt>
      <trkpt lat="43.96208" lon="5.14355">
        <ele>454.36</ele>
        <time>2017-05-08T10:49:37Z</time>
      </trkpt>
      <trkpt lat="43.96208" lon="5.14361">
        <ele>453.4</ele>
        <time>2017-05-08T10:49:55Z</time>
      </trkpt>
      <trkpt lat="43.96205" lon="5.14358">
        <ele>452.92</ele>
        <time>2017-05-08T10:50:25Z</time>
      </trkpt>
      <trkpt lat="43.96204" lon="5.14358">
        <ele>454.36</ele>
        <time>2017-05-08T10:50:44Z</time>
      </trkpt>
      <trkpt lat="43.96209" lon="5.1436">
        <ele>454.36</ele>
        <time>2017-05-08T10:51:02Z</time>
      </trkpt>
      <trkpt lat="43.96214" lon="5.14363">
        <ele>454.84</ele>
        <time>2017-05-08T10:51:29Z</time>
      </trkpt>
      <trkpt lat="43.96215" lon="5.14366">
        <ele>454.84</ele>
        <time>2017-05-08T10:51:53Z</time>
      </trkpt>
      <trkpt lat="43.96215" lon="5.14364">
        <ele>455.32</ele>
        <time>2017-05-08T10:52:19Z</time>
      </trkpt>
      <trkpt lat="43.96215" lon="5.14362">
        <ele>455.8</ele>
        <time>2017-05-08T10:52:51Z</time>
      </trkpt>
      <trkpt lat="43.96216" lon="5.14362">
        <ele>454.36</ele>
        <time>2017-05-08T10:52:53Z</time>
      </trkpt>
      <trkpt lat="43.96215" lon="5.14363">
        <ele>454.84</ele>
        <time>2017-05-08T10:53:27Z</time>
      </trkpt>
      <trkpt lat="43.9622" lon="5.14366">
        <ele>455.32</ele>
        <time>2017-05-08T10:54:08Z</time>
      </trkpt>
      <trkpt lat="43.96223" lon="5.14367">
        <ele>456.28</ele>
        <time>2017-05-08T10:54:23Z</time>
      </trkpt>
      <trkpt lat="43.96223" lon="5.1437">
        <ele>456.76</ele>
        <time>2017-05-08T10:54:54Z</time>
      </trkpt>
      <trkpt lat="43.96218" lon="5.14372">
        <ele>456.76</ele>
        <time>2017-05-08T10:55:27Z</time>
      </trkpt>
      <trkpt lat="43.96217" lon="5.14371">
        <ele>455.8</ele>
        <time>2017-05-08T10:55:33Z</time>
      </trkpt>
      <trkpt lat="43.96216" lon="5.14371">
        <ele>455.32</ele>
        <time>2017-05-08T10:56:00Z</time>
      </trkpt>
      <trkpt lat="43.96215" lon="5.14373">
        <ele>455.8</ele>
        <time>2017-05-08T10:56:30Z</time>
      </trkpt>
      <trkpt lat="43.96215" lon="5.14372">
        <ele>457.24</ele>
        <time>2017-05-08T10:56:51Z</time>
      </trkpt>
      <trkpt lat="43.96218" lon="5.1437">
        <ele>456.76</ele>
        <time>2017-05-08T10:57:27Z</time>
      </trkpt>
      <trkpt lat="43.96216" lon="5.14368">
        <ele>457.72</ele>
        <time>2017-05-08T10:57:53Z</time>
      </trkpt>
      <trkpt lat="43.96218" lon="5.14366">
        <ele>456.76</ele>
        <time>2017-05-08T10:58:22Z</time>
      </trkpt>
      <trkpt lat="43.96219" lon="5.1437">
        <ele>459.17</ele>
        <time>2017-05-08T10:58:56Z</time>
      </trkpt>
      <trkpt lat="43.96218" lon="5.14367">
        <ele>459.17</ele>
        <time>2017-05-08T10:59:24Z</time>
      </trkpt>
      <trkpt lat="43.96217" lon="5.14365">
        <ele>458.21</ele>
        <time>2017-05-08T10:59:52Z</time>
      </trkpt>
      <trkpt lat="43.96217" lon="5.14365">
        <ele>458.21</ele>
        <time>2017-05-08T11:00:21Z</time>
      </trkpt>
      <trkpt lat="43.96214" lon="5.14367">
        <ele>458.21</ele>
        <time>2017-05-08T11:00:54Z</time>
      </trkpt>
      <trkpt lat="43.96213" lon="5.14369">
        <ele>459.17</ele>
        <time>2017-05-08T11:01:26Z</time>
      </trkpt>
      <trkpt lat="43.96215" lon="5.1437">
        <ele>458.21</ele>
        <time>2017-05-08T11:01:52Z</time>
      </trkpt>
      <trkpt lat="43.96218" lon="5.14372">
        <ele>458.69</ele>
        <time>2017-05-08T11:02:18Z</time>
      </trkpt>
      <trkpt lat="43.96223" lon="5.14371">
        <ele>459.65</ele>
        <time>2017-05-08T11:02:38Z</time>
      </trkpt>
      <trkpt lat="43.96225" lon="5.14371">
        <ele>460.61</ele>
        <time>2017-05-08T11:03:16Z</time>
      </trkpt>
      <trkpt lat="43.96224" lon="5.14367">
        <ele>459.65</ele>
        <time>2017-05-08T11:03:46Z</time>
      </trkpt>
      <trkpt lat="43.96218" lon="5.14368">
        <ele>458.69</ele>
        <time>2017-05-08T11:04:10Z</time>
      </trkpt>
      <trkpt lat="43.96216" lon="5.14367">
        <ele>460.13</ele>
        <time>2017-05-08T11:04:39Z</time>
      </trkpt>
      <trkpt lat="43.96222" lon="5.14363">
        <ele>459.65</ele>
        <time>2017-05-08T11:05:12Z</time>
      </trkpt>
      <trkpt lat="43.96223" lon="5.14362">
        <ele>461.09</ele>
        <time>2017-05-08T11:05:14Z</time>
      </trkpt>
      <trkpt lat="43.96221" lon="5.14365">
        <ele>461.09</ele>
        <time>2017-05-08T11:05:48Z</time>
      </trkpt>
      <trkpt lat="43.96219" lon="5.14367">
        <ele>461.09</ele>
        <time>2017-05-08T11:06:14Z</time>
      </trkpt>
      <trkpt lat="43.96222" lon="5.14364">
        <ele>461.57</ele>
        <time>2017-05-08T11:06:47Z</time>
      </trkpt>
      <trkpt lat="43.96218" lon="5.14364">
        <ele>462.05</ele>
        <time>2017-05-08T11:07:16Z</time>
      </trkpt>
      <trkpt lat="43.96221" lon="5.14364">
        <ele>462.05</ele>
        <time>2017-05-08T11:07:45Z</time>
      </trkpt>
      <trkpt lat="43.96224" lon="5.14366">
        <ele>462.53</ele>
        <time>2017-05-08T11:08:15Z</time>
      </trkpt>
      <trkpt lat="43.96225" lon="5.14366">
        <ele>461.09</ele>
        <time>2017-05-08T11:08:21Z</time>
      </trkpt>
      <trkpt lat="43.96224" lon="5.14362">
        <ele>462.53</ele>
        <time>2017-05-08T11:08:52Z</time>
      </trkpt>
      <trkpt lat="43.96221" lon="5.14365">
        <ele>463.49</ele>
        <time>2017-05-08T11:09:26Z</time>
      </trkpt>
      <trkpt lat="43.96223" lon="5.14368">
        <ele>461.57</ele>
        <time>2017-05-08T11:10:00Z</time>
      </trkpt>
      <trkpt lat="43.96223" lon="5.14368">
        <ele>463.01</ele>
        <time>2017-05-08T11:10:11Z</time>
      </trkpt>
      <trkpt lat="43.96224" lon="5.14368">
        <ele>461.57</ele>
        <time>2017-05-08T11:10:21Z</time>
      </trkpt>
      <trkpt lat="43.96225" lon="5.14368">
        <ele>461.57</ele>
        <time>2017-05-08T11:10:48Z</time>
      </trkpt>
      <trkpt lat="43.96221" lon="5.14367">
        <ele>463.01</ele>
        <time>2017-05-08T11:11:07Z</time>
      </trkpt>
      <trkpt lat="43.96218" lon="5.14366">
        <ele>463.49</ele>
        <time>2017-05-08T11:11:38Z</time>
      </trkpt>
      <trkpt lat="43.96223" lon="5.14365">
        <ele>463.97</ele>
        <time>2017-05-08T11:12:00Z</time>
      </trkpt>
      <trkpt lat="43.96225" lon="5.14362">
        <ele>462.53</ele>
        <time>2017-05-08T11:12:29Z</time>
      </trkpt>
      <trkpt lat="43.96228" lon="5.1436">
        <ele>462.53</ele>
        <time>2017-05-08T11:12:40Z</time>
      </trkpt>
      <trkpt lat="43.96227" lon="5.14355">
        <ele>463.97</ele>
        <time>2017-05-08T11:12:58Z</time>
      </trkpt>
      <trkpt lat="43.96224" lon="5.14356">
        <ele>464.45</ele>
        <time>2017-05-08T11:13:22Z</time>
      </trkpt>
      <trkpt lat="43.96223" lon="5.1435">
        <ele>464.93</ele>
        <time>2017-05-08T11:13:45Z</time>
      </trkpt>
      <trkpt lat="43.96221" lon="5.14351">
        <ele>463.49</ele>
        <time>2017-05-08T11:13:54Z</time>
      </trkpt>
      <trkpt lat="43.96222" lon="5.14351">
        <ele>463.49</ele>
        <time>2017-05-08T11:14:17Z</time>
      </trkpt>
      <trkpt lat="43.96228" lon="5.1434">
        <ele>464.93</ele>
        <time>2017-05-08T11:14:28Z</time>
      </trkpt>
      <trkpt lat="43.96229" lon="5.14328">
        <ele>465.9</ele>
        <time>2017-05-08T11:14:43Z</time>
      </trkpt>
      <trkpt lat="43.96227" lon="5.14315">
        <ele>467.34</ele>
        <time>2017-05-08T11:14:57Z</time>
      </trkpt>
      <trkpt lat="43.96229" lon="5.14308">
        <ele>467.34</ele>
        <time>2017-05-08T11:15:10Z</time>
      </trkpt>
      <trkpt lat="43.9623" lon="5.14303">
        <ele>468.3</ele>
        <time>2017-05-08T11:15:21Z</time>
      </trkpt>
      <trkpt lat="43.96231" lon="5.14299">
        <ele>468.3</ele>
        <time>2017-05-08T11:15:36Z</time>
      </trkpt>
      <trkpt lat="43.96231" lon="5.14293">
        <ele>468.3</ele>
        <time>2017-05-08T11:15:48Z</time>
      </trkpt>
      <trkpt lat="43.96232" lon="5.14288">
        <ele>468.78</ele>
        <time>2017-05-08T11:16:01Z</time>
      </trkpt>
      <trkpt lat="43.96224" lon="5.14277">
        <ele>471.18</ele>
        <time>2017-05-08T11:16:16Z</time>
      </trkpt>
      <trkpt lat="43.96216" lon="5.14277">
        <ele>472.14</ele>
        <time>2017-05-08T11:16:36Z</time>
      </trkpt>
      <trkpt lat="43.96212" lon="5.14277">
        <ele>472.14</ele>
        <time>2017-05-08T11:16:46Z</time>
      </trkpt>
      <trkpt lat="43.96211" lon="5.14277">
        <ele>470.7</ele>
        <time>2017-05-08T11:16:48Z</time>
      </trkpt>
      <trkpt lat="43.96209" lon="5.14274">
        <ele>470.22</ele>
        <time>2017-05-08T11:17:05Z</time>
      </trkpt>
      <trkpt lat="43.9621" lon="5.14271">
        <ele>468.3</ele>
        <time>2017-05-08T11:17:22Z</time>
      </trkpt>
      <trkpt lat="43.96216" lon="5.14269">
        <ele>466.38</ele>
        <time>2017-05-08T11:17:38Z</time>
      </trkpt>
      <trkpt lat="43.96216" lon="5.14261">
        <ele>464.93</ele>
        <time>2017-05-08T11:17:53Z</time>
      </trkpt>
      <trkpt lat="43.96214" lon="5.14256">
        <ele>462.05</ele>
        <time>2017-05-08T11:18:08Z</time>
      </trkpt>
      <trkpt lat="43.96212" lon="5.14252">
        <ele>460.61</ele>
        <time>2017-05-08T11:18:24Z</time>
      </trkpt>
      <trkpt lat="43.96214" lon="5.14247">
        <ele>458.21</ele>
        <time>2017-05-08T11:18:39Z</time>
      </trkpt>
      <trkpt lat="43.96219" lon="5.14241">
        <ele>457.24</ele>
        <time>2017-05-08T11:18:55Z</time>
      </trkpt>
      <trkpt lat="43.96219" lon="5.14242">
        <ele>456.76</ele>
        <time>2017-05-08T11:19:11Z</time>
      </trkpt>
      <trkpt lat="43.96214" lon="5.14234">
        <ele>457.72</ele>
        <time>2017-05-08T11:19:26Z</time>
      </trkpt>
      <trkpt lat="43.96209" lon="5.14232">
        <ele>459.65</ele>
        <time>2017-05-08T11:19:41Z</time>
      </trkpt>
      <trkpt lat="43.96213" lon="5.14217">
        <ele>461.09</ele>
        <time>2017-05-08T11:19:58Z</time>
      </trkpt>
      <trkpt lat="43.96216" lon="5.14201">
        <ele>462.53</ele>
        <time>2017-05-08T11:20:15Z</time>
      </trkpt>
      <trkpt lat="43.96223" lon="5.14188">
        <ele>463.97</ele>
        <time>2017-05-08T11:20:32Z</time>
      </trkpt>
      <trkpt lat="43.9623" lon="5.14183">
        <ele>464.93</ele>
        <time>2017-05-08T11:20:47Z</time>
      </trkpt>
      <trkpt lat="43.96239" lon="5.14182">
        <ele>463.49</ele>
        <time>2017-05-08T11:21:02Z</time>
      </trkpt>
      <trkpt lat="43.96249" lon="5.14169">
        <ele>463.01</ele>
        <time>2017-05-08T11:21:19Z</time>
      </trkpt>
      <trkpt lat="43.9626" lon="5.14159">
        <ele>465.42</ele>
        <time>2017-05-08T11:21:36Z</time>
      </trkpt>
      <trkpt lat="43.96265" lon="5.14147">
        <ele>467.34</ele>
        <time>2017-05-08T11:21:52Z</time>
      </trkpt>
      <trkpt lat="43.96275" lon="5.14134">
        <ele>468.78</ele>
        <time>2017-05-08T11:22:09Z</time>
      </trkpt>
      <trkpt lat="43.96283" lon="5.14123">
        <ele>470.7</ele>
        <time>2017-05-08T11:22:24Z</time>
      </trkpt>
      <trkpt lat="43.96288" lon="5.14111">
        <ele>473.59</ele>
        <time>2017-05-08T11:22:40Z</time>
      </trkpt>
      <trkpt lat="43.96291" lon="5.14099">
        <ele>476.47</ele>
        <time>2017-05-08T11:22:57Z</time>
      </trkpt>
      <trkpt lat="43.96297" lon="5.14089">
        <ele>478.87</ele>
        <time>2017-05-08T11:23:13Z</time>
      </trkpt>
      <trkpt lat="43.96297" lon="5.1408">
        <ele>481.76</ele>
        <time>2017-05-08T11:23:28Z</time>
      </trkpt>
      <trkpt lat="43.96299" lon="5.14072">
        <ele>482.72</ele>
        <time>2017-05-08T11:23:43Z</time>
      </trkpt>
      <trkpt lat="43.96299" lon="5.14057">
        <ele>484.16</ele>
        <time>2017-05-08T11:23:58Z</time>
      </trkpt>
      <trkpt lat="43.96296" lon="5.1405">
        <ele>485.6</ele>
        <time>2017-05-08T11:24:11Z</time>
      </trkpt>
      <trkpt lat="43.96295" lon="5.14048">
        <ele>484.16</ele>
        <time>2017-05-08T11:24:14Z</time>
      </trkpt>
      <trkpt lat="43.96295" lon="5.14046">
        <ele>485.6</ele>
        <time>2017-05-08T11:24:17Z</time>
      </trkpt>
      <trkpt lat="43.96294" lon="5.14045">
        <ele>484.64</ele>
        <time>2017-05-08T11:24:21Z</time>
      </trkpt>
      <trkpt lat="43.96293" lon="5.14045">
        <ele>483.68</ele>
        <time>2017-05-08T11:24:40Z</time>
      </trkpt>
      <trkpt lat="43.96294" lon="5.14043">
        <ele>483.68</ele>
        <time>2017-05-08T11:25:14Z</time>
      </trkpt>
      <trkpt lat="43.96293" lon="5.14045">
        <ele>484.64</ele>
        <time>2017-05-08T11:25:34Z</time>
      </trkpt>
      <trkpt lat="43.96294" lon="5.14044">
        <ele>483.68</ele>
        <time>2017-05-08T11:25:53Z</time>
      </trkpt>
      <trkpt lat="43.96294" lon="5.14043">
        <ele>485.12</ele>
        <time>2017-05-08T11:26:07Z</time>
      </trkpt>
      <trkpt lat="43.96294" lon="5.14042">
        <ele>483.68</ele>
        <time>2017-05-08T11:26:21Z</time>
      </trkpt>
      <trkpt lat="43.96294" lon="5.14042">
        <ele>485.12</ele>
        <time>2017-05-08T11:26:26Z</time>
      </trkpt>
      <trkpt lat="43.96294" lon="5.14042">
        <ele>485.12</ele>
        <time>2017-05-08T11:27:00Z</time>
      </trkpt>
      <trkpt lat="43.96294" lon="5.14042">
        <ele>483.68</ele>
        <time>2017-05-08T11:27:04Z</time>
      </trkpt>
      <trkpt lat="43.96293" lon="5.14042">
        <ele>484.64</ele>
        <time>2017-05-08T11:27:16Z</time>
      </trkpt>
      <trkpt lat="43.96292" lon="5.14043">
        <ele>483.68</ele>
        <time>2017-05-08T11:27:27Z</time>
      </trkpt>
      <trkpt lat="43.96293" lon="5.14042">
        <ele>483.68</ele>
        <time>2017-05-08T11:27:50Z</time>
      </trkpt>
      <trkpt lat="43.96293" lon="5.14041">
        <ele>484.16</ele>
        <time>2017-05-08T11:27:57Z</time>
      </trkpt>
      <trkpt lat="43.96289" lon="5.14029">
        <ele>485.12</ele>
        <time>2017-05-08T11:28:13Z</time>
      </trkpt>
      <trkpt lat="43.96283" lon="5.14012">
        <ele>485.12</ele>
        <time>2017-05-08T11:28:31Z</time>
      </trkpt>
      <trkpt lat="43.96281" lon="5.14008">
        <ele>483.68</ele>
        <time>2017-05-08T11:28:35Z</time>
      </trkpt>
      <trkpt lat="43.9627" lon="5.13996">
        <ele>483.2</ele>
        <time>2017-05-08T11:28:50Z</time>
      </trkpt>
      <trkpt lat="43.96268" lon="5.13995">
        <ele>484.64</ele>
        <time>2017-05-08T11:28:53Z</time>
      </trkpt>
      <trkpt lat="43.96258" lon="5.13985">
        <ele>485.12</ele>
        <time>2017-05-08T11:29:08Z</time>
      </trkpt>
      <trkpt lat="43.96251" lon="5.13972">
        <ele>483.68</ele>
        <time>2017-05-08T11:29:21Z</time>
      </trkpt>
      <trkpt lat="43.96246" lon="5.13959">
        <ele>481.28</ele>
        <time>2017-05-08T11:29:37Z</time>
      </trkpt>
      <trkpt lat="43.96238" lon="5.13943">
        <ele>478.39</ele>
        <time>2017-05-08T11:29:54Z</time>
      </trkpt>
      <trkpt lat="43.9623" lon="5.13931">
        <ele>480.32</ele>
        <time>2017-05-08T11:30:06Z</time>
      </trkpt>
      <trkpt lat="43.96226" lon="5.13925">
        <ele>478.87</ele>
        <time>2017-05-08T11:30:11Z</time>
      </trkpt>
      <trkpt lat="43.96215" lon="5.13912">
        <ele>477.91</ele>
        <time>2017-05-08T11:30:29Z</time>
      </trkpt>
      <trkpt lat="43.96207" lon="5.13902">
        <ele>475.99</ele>
        <time>2017-05-08T11:30:43Z</time>
      </trkpt>
      <trkpt lat="43.96203" lon="5.13891">
        <ele>473.11</ele>
        <time>2017-05-08T11:31:00Z</time>
      </trkpt>
      <trkpt lat="43.96204" lon="5.13888">
        <ele>472.14</ele>
        <time>2017-05-08T11:31:06Z</time>
      </trkpt>
      <trkpt lat="43.96208" lon="5.13879">
        <ele>471.18</ele>
        <time>2017-05-08T11:31:23Z</time>
      </trkpt>
      <trkpt lat="43.96211" lon="5.1387">
        <ele>469.26</ele>
        <time>2017-05-08T11:31:39Z</time>
      </trkpt>
      <trkpt lat="43.96208" lon="5.13858">
        <ele>466.38</ele>
        <time>2017-05-08T11:31:56Z</time>
      </trkpt>
      <trkpt lat="43.96207" lon="5.13841">
        <ele>464.93</ele>
        <time>2017-05-08T11:32:12Z</time>
      </trkpt>
      <trkpt lat="43.96198" lon="5.13827">
        <ele>464.45</ele>
        <time>2017-05-08T11:32:26Z</time>
      </trkpt>
      <trkpt lat="43.96189" lon="5.13814">
        <ele>462.53</ele>
        <time>2017-05-08T11:32:41Z</time>
      </trkpt>
      <trkpt lat="43.96179" lon="5.138">
        <ele>461.09</ele>
        <time>2017-05-08T11:32:58Z</time>
      </trkpt>
      <trkpt lat="43.96168" lon="5.13787">
        <ele>460.13</ele>
        <time>2017-05-08T11:33:15Z</time>
      </trkpt>
      <trkpt lat="43.9616" lon="5.1377">
        <ele>458.69</ele>
        <time>2017-05-08T11:33:33Z</time>
      </trkpt>
      <trkpt lat="43.96159" lon="5.13765">
        <ele>457.72</ele>
        <time>2017-05-08T11:33:38Z</time>
      </trkpt>
      <trkpt lat="43.96146" lon="5.13746">
        <ele>457.72</ele>
        <time>2017-05-08T11:33:59Z</time>
      </trkpt>
      <trkpt lat="43.96143" lon="5.13746">
        <ele>457.72</ele>
        <time>2017-05-08T11:34:24Z</time>
      </trkpt>
      <trkpt lat="43.96137" lon="5.13735">
        <ele>457.72</ele>
        <time>2017-05-08T11:34:41Z</time>
      </trkpt>
      <trkpt lat="43.96124" lon="5.13712">
        <ele>459.17</ele>
        <time>2017-05-08T11:35:02Z</time>
      </trkpt>
      <trkpt lat="43.96116" lon="5.13688">
        <ele>460.13</ele>
        <time>2017-05-08T11:35:23Z</time>
      </trkpt>
      <trkpt lat="43.96113" lon="5.13665">
        <ele>459.65</ele>
        <time>2017-05-08T11:35:42Z</time>
      </trkpt>
      <trkpt lat="43.96109" lon="5.13662">
        <ele>460.13</ele>
        <time>2017-05-08T11:35:57Z</time>
      </trkpt>
      <trkpt lat="43.96108" lon="5.13661">
        <ele>460.61</ele>
        <time>2017-05-08T11:36:24Z</time>
      </trkpt>
      <trkpt lat="43.96121" lon="5.13654">
        <ele>462.53</ele>
        <time>2017-05-08T11:36:43Z</time>
      </trkpt>
      <trkpt lat="43.96134" lon="5.13655">
        <ele>463.97</ele>
        <time>2017-05-08T11:37:01Z</time>
      </trkpt>
      <trkpt lat="43.96147" lon="5.13648">
        <ele>466.86</ele>
        <time>2017-05-08T11:37:19Z</time>
      </trkpt>
      <trkpt lat="43.96165" lon="5.13649">
        <ele>468.78</ele>
        <time>2017-05-08T11:37:39Z</time>
      </trkpt>
      <trkpt lat="43.96183" lon="5.13641">
        <ele>470.7</ele>
        <time>2017-05-08T11:37:59Z</time>
      </trkpt>
      <trkpt lat="43.96185" lon="5.1364">
        <ele>470.7</ele>
        <time>2017-05-08T11:38:01Z</time>
      </trkpt>
      <trkpt lat="43.96203" lon="5.13634">
        <ele>471.18</ele>
        <time>2017-05-08T11:38:21Z</time>
      </trkpt>
      <trkpt lat="43.96224" lon="5.13634">
        <ele>471.18</ele>
        <time>2017-05-08T11:38:42Z</time>
      </trkpt>
      <trkpt lat="43.96242" lon="5.1363">
        <ele>471.18</ele>
        <time>2017-05-08T11:39:01Z</time>
      </trkpt>
      <trkpt lat="43.96264" lon="5.13625">
        <ele>471.66</ele>
        <time>2017-05-08T11:39:22Z</time>
      </trkpt>
      <trkpt lat="43.96286" lon="5.13617">
        <ele>471.66</ele>
        <time>2017-05-08T11:39:45Z</time>
      </trkpt>
      <trkpt lat="43.96306" lon="5.13612">
        <ele>470.22</ele>
        <time>2017-05-08T11:40:05Z</time>
      </trkpt>
      <trkpt lat="43.96326" lon="5.13607">
        <ele>470.22</ele>
        <time>2017-05-08T11:40:25Z</time>
      </trkpt>
      <trkpt lat="43.96347" lon="5.13601">
        <ele>469.74</ele>
        <time>2017-05-08T11:40:47Z</time>
      </trkpt>
      <trkpt lat="43.96365" lon="5.13594">
        <ele>470.7</ele>
        <time>2017-05-08T11:41:04Z</time>
      </trkpt>
      <trkpt lat="43.96375" lon="5.1359">
        <ele>469.26</ele>
        <time>2017-05-08T11:41:15Z</time>
      </trkpt>
      <trkpt lat="43.96394" lon="5.13584">
        <ele>469.26</ele>
        <time>2017-05-08T11:41:33Z</time>
      </trkpt>
      <trkpt lat="43.96413" lon="5.13573">
        <ele>468.78</ele>
        <time>2017-05-08T11:41:53Z</time>
      </trkpt>
      <trkpt lat="43.96429" lon="5.13564">
        <ele>468.78</ele>
        <time>2017-05-08T11:42:13Z</time>
      </trkpt>
      <trkpt lat="43.9644" lon="5.13563">
        <ele>468.78</ele>
        <time>2017-05-08T11:42:28Z</time>
      </trkpt>
      <trkpt lat="43.96458" lon="5.13555">
        <ele>469.74</ele>
        <time>2017-05-08T11:42:46Z</time>
      </trkpt>
      <trkpt lat="43.96474" lon="5.13549">
        <ele>470.7</ele>
        <time>2017-05-08T11:43:04Z</time>
      </trkpt>
      <trkpt lat="43.9649" lon="5.13538">
        <ele>472.14</ele>
        <time>2017-05-08T11:43:22Z</time>
      </trkpt>
      <trkpt lat="43.96499" lon="5.13531">
        <ele>472.14</ele>
        <time>2017-05-08T11:43:32Z</time>
      </trkpt>
      <trkpt lat="43.96514" lon="5.13513">
        <ele>472.14</ele>
        <time>2017-05-08T11:43:51Z</time>
      </trkpt>
      <trkpt lat="43.96527" lon="5.13493">
        <ele>472.63</ele>
        <time>2017-05-08T11:44:11Z</time>
      </trkpt>
      <trkpt lat="43.96532" lon="5.13489">
        <ele>471.18</ele>
        <time>2017-05-08T11:44:20Z</time>
      </trkpt>
      <trkpt lat="43.96542" lon="5.13484">
        <ele>470.22</ele>
        <time>2017-05-08T11:44:32Z</time>
      </trkpt>
      <trkpt lat="43.96549" lon="5.13478">
        <ele>469.26</ele>
        <time>2017-05-08T11:44:48Z</time>
      </trkpt>
      <trkpt lat="43.96551" lon="5.13477">
        <ele>468.78</ele>
        <time>2017-05-08T11:45:13Z</time>
      </trkpt>
      <trkpt lat="43.96551" lon="5.13477">
        <ele>468.3</ele>
        <time>2017-05-08T11:45:40Z</time>
      </trkpt>
      <trkpt lat="43.96553" lon="5.13477">
        <ele>468.3</ele>
        <time>2017-05-08T11:46:03Z</time>
      </trkpt>
      <trkpt lat="43.96551" lon="5.13476">
        <ele>467.82</ele>
        <time>2017-05-08T11:46:29Z</time>
      </trkpt>
      <trkpt lat="43.96551" lon="5.13473">
        <ele>468.3</ele>
        <time>2017-05-08T11:46:39Z</time>
      </trkpt>
      <trkpt lat="43.96551" lon="5.13473">
        <ele>466.86</ele>
        <time>2017-05-08T11:46:42Z</time>
      </trkpt>
      <trkpt lat="43.96551" lon="5.13472">
        <ele>468.3</ele>
        <time>2017-05-08T11:46:45Z</time>
      </trkpt>
      <trkpt lat="43.96551" lon="5.13472">
        <ele>467.34</ele>
        <time>2017-05-08T11:47:16Z</time>
      </trkpt>
      <trkpt lat="43.96551" lon="5.13472">
        <ele>466.86</ele>
        <time>2017-05-08T11:47:47Z</time>
      </trkpt>
      <trkpt lat="43.96556" lon="5.13476">
        <ele>466.38</ele>
        <time>2017-05-08T11:48:07Z</time>
      </trkpt>
      <trkpt lat="43.96565" lon="5.13478">
        <ele>467.82</ele>
        <time>2017-05-08T11:48:20Z</time>
      </trkpt>
      <trkpt lat="43.96565" lon="5.13478">
        <ele>465.9</ele>
        <time>2017-05-08T11:48:22Z</time>
      </trkpt>
      <trkpt lat="43.96565" lon="5.13477">
        <ele>467.34</ele>
        <time>2017-05-08T11:48:24Z</time>
      </trkpt>
      <trkpt lat="43.96571" lon="5.13474">
        <ele>466.38</ele>
        <time>2017-05-08T11:48:33Z</time>
      </trkpt>
      <trkpt lat="43.96575" lon="5.13469">
        <ele>467.34</ele>
        <time>2017-05-08T11:48:40Z</time>
      </trkpt>
      <trkpt lat="43.96577" lon="5.13465">
        <ele>465.42</ele>
        <time>2017-05-08T11:48:44Z</time>
      </trkpt>
      <trkpt lat="43.96583" lon="5.13451">
        <ele>464.45</ele>
        <time>2017-05-08T11:48:59Z</time>
      </trkpt>
      <trkpt lat="43.96586" lon="5.13443">
        <ele>463.01</ele>
        <time>2017-05-08T11:49:08Z</time>
      </trkpt>
      <trkpt lat="43.9659" lon="5.13435">
        <ele>461.09</ele>
        <time>2017-05-08T11:49:18Z</time>
      </trkpt>
      <trkpt lat="43.96592" lon="5.13416">
        <ele>459.17</ele>
        <time>2017-05-08T11:49:36Z</time>
      </trkpt>
      <trkpt lat="43.96594" lon="5.13402">
        <ele>457.72</ele>
        <time>2017-05-08T11:49:51Z</time>
      </trkpt>
      <trkpt lat="43.96595" lon="5.13389">
        <ele>456.28</ele>
        <time>2017-05-08T11:50:06Z</time>
      </trkpt>
      <trkpt lat="43.96594" lon="5.13377">
        <ele>454.84</ele>
        <time>2017-05-08T11:50:17Z</time>
      </trkpt>
      <trkpt lat="43.96591" lon="5.13364">
        <ele>451.96</ele>
        <time>2017-05-08T11:50:31Z</time>
      </trkpt>
      <trkpt lat="43.96591" lon="5.13349">
        <ele>449.55</ele>
        <time>2017-05-08T11:50:47Z</time>
      </trkpt>
      <trkpt lat="43.96593" lon="5.13336">
        <ele>447.15</ele>
        <time>2017-05-08T11:51:02Z</time>
      </trkpt>
      <trkpt lat="43.96597" lon="5.13317">
        <ele>444.75</ele>
        <time>2017-05-08T11:51:20Z</time>
      </trkpt>
      <trkpt lat="43.96599" lon="5.13307">
        <ele>442.82</ele>
        <time>2017-05-08T11:51:30Z</time>
      </trkpt>
      <trkpt lat="43.96601" lon="5.13291">
        <ele>441.86</ele>
        <time>2017-05-08T11:51:43Z</time>
      </trkpt>
      <trkpt lat="43.96601" lon="5.13279">
        <ele>440.42</ele>
        <time>2017-05-08T11:51:58Z</time>
      </trkpt>
      <trkpt lat="43.96601" lon="5.13279">
        <ele>440.42</ele>
        <time>2017-05-08T11:52:03Z</time>
      </trkpt>
      <trkpt lat="43.96602" lon="5.13277">
        <ele>440.9</ele>
        <time>2017-05-08T11:52:10Z</time>
      </trkpt>
      <trkpt lat="43.96607" lon="5.13275">
        <ele>441.38</ele>
        <time>2017-05-08T11:52:18Z</time>
      </trkpt>
      <trkpt lat="43.96611" lon="5.13272">
        <ele>440.42</ele>
        <time>2017-05-08T11:52:25Z</time>
      </trkpt>
      <trkpt lat="43.96621" lon="5.13266">
        <ele>438.98</ele>
        <time>2017-05-08T11:52:40Z</time>
      </trkpt>
      <trkpt lat="43.9663" lon="5.13254">
        <ele>437.54</ele>
        <time>2017-05-08T11:52:57Z</time>
      </trkpt>
      <trkpt lat="43.96643" lon="5.13242">
        <ele>437.06</ele>
        <time>2017-05-08T11:53:15Z</time>
      </trkpt>
      <trkpt lat="43.96651" lon="5.13227">
        <ele>435.13</ele>
        <time>2017-05-08T11:53:31Z</time>
      </trkpt>
      <trkpt lat="43.96657" lon="5.13213">
        <ele>434.17</ele>
        <time>2017-05-08T11:53:47Z</time>
      </trkpt>
      <trkpt lat="43.9666" lon="5.13205">
        <ele>432.73</ele>
        <time>2017-05-08T11:54:04Z</time>
      </trkpt>
      <trkpt lat="43.96661" lon="5.13203">
        <ele>432.73</ele>
        <time>2017-05-08T11:54:32Z</time>
      </trkpt>
      <trkpt lat="43.96662" lon="5.13204">
        <ele>432.73</ele>
        <time>2017-05-08T11:54:51Z</time>
      </trkpt>
      <trkpt lat="43.96663" lon="5.13204">
        <ele>433.69</ele>
        <time>2017-05-08T11:55:04Z</time>
      </trkpt>
      <trkpt lat="43.96664" lon="5.13198">
        <ele>432.73</ele>
        <time>2017-05-08T11:55:14Z</time>
      </trkpt>
      <trkpt lat="43.9667" lon="5.13192">
        <ele>430.33</ele>
        <time>2017-05-08T11:55:31Z</time>
      </trkpt>
      <trkpt lat="43.96676" lon="5.13178">
        <ele>428.89</ele>
        <time>2017-05-08T11:55:45Z</time>
      </trkpt>
      <trkpt lat="43.96682" lon="5.13166">
        <ele>426.48</ele>
        <time>2017-05-08T11:56:02Z</time>
      </trkpt>
      <trkpt lat="43.9669" lon="5.13156">
        <ele>424.08</ele>
        <time>2017-05-08T11:56:20Z</time>
      </trkpt>
      <trkpt lat="43.96694" lon="5.13142">
        <ele>422.16</ele>
        <time>2017-05-08T11:56:35Z</time>
      </trkpt>
      <trkpt lat="43.96699" lon="5.13128">
        <ele>419.75</ele>
        <time>2017-05-08T11:56:50Z</time>
      </trkpt>
      <trkpt lat="43.96701" lon="5.13122">
        <ele>419.75</ele>
        <time>2017-05-08T11:56:56Z</time>
      </trkpt>
      <trkpt lat="43.96702" lon="5.13118">
        <ele>418.31</ele>
        <time>2017-05-08T11:57:00Z</time>
      </trkpt>
      <trkpt lat="43.96705" lon="5.13101">
        <ele>416.87</ele>
        <time>2017-05-08T11:57:16Z</time>
      </trkpt>
      <trkpt lat="43.9671" lon="5.13083">
        <ele>415.91</ele>
        <time>2017-05-08T11:57:35Z</time>
      </trkpt>
      <trkpt lat="43.96718" lon="5.13072">
        <ele>414.47</ele>
        <time>2017-05-08T11:57:51Z</time>
      </trkpt>
      <trkpt lat="43.96727" lon="5.13061">
        <ele>412.06</ele>
        <time>2017-05-08T11:58:08Z</time>
      </trkpt>
      <trkpt lat="43.96734" lon="5.13048">
        <ele>410.14</ele>
        <time>2017-05-08T11:58:24Z</time>
      </trkpt>
      <trkpt lat="43.96745" lon="5.13033">
        <ele>408.22</ele>
        <time>2017-05-08T11:58:43Z</time>
      </trkpt>
      <trkpt lat="43.96754" lon="5.13022">
        <ele>407.26</ele>
        <time>2017-05-08T11:59:01Z</time>
      </trkpt>
      <trkpt lat="43.9676" lon="5.13011">
        <ele>406.29</ele>
        <time>2017-05-08T11:59:16Z</time>
      </trkpt>
      <trkpt lat="43.96765" lon="5.12999">
        <ele>405.33</ele>
        <time>2017-05-08T11:59:30Z</time>
      </trkpt>
      <trkpt lat="43.96772" lon="5.12982">
        <ele>404.37</ele>
        <time>2017-05-08T11:59:47Z</time>
      </trkpt>
      <trkpt lat="43.96783" lon="5.1297">
        <ele>403.41</ele>
        <time>2017-05-08T12:00:04Z</time>
      </trkpt>
      <trkpt lat="43.96795" lon="5.1296">
        <ele>403.41</ele>
        <time>2017-05-08T12:00:20Z</time>
      </trkpt>
      <trkpt lat="43.96812" lon="5.12948">
        <ele>402.45</ele>
        <time>2017-05-08T12:00:40Z</time>
      </trkpt>
      <trkpt lat="43.96827" lon="5.1294">
        <ele>401.01</ele>
        <time>2017-05-08T12:00:58Z</time>
      </trkpt>
      <trkpt lat="43.96846" lon="5.12928">
        <ele>400.05</ele>
        <time>2017-05-08T12:01:18Z</time>
      </trkpt>
      <trkpt lat="43.96862" lon="5.12914">
        <ele>398.6</ele>
        <time>2017-05-08T12:01:40Z</time>
      </trkpt>
      <trkpt lat="43.96878" lon="5.12903">
        <ele>398.12</ele>
        <time>2017-05-08T12:01:59Z</time>
      </trkpt>
      <trkpt lat="43.96892" lon="5.12893">
        <ele>396.68</ele>
        <time>2017-05-08T12:02:16Z</time>
      </trkpt>
      <trkpt lat="43.96908" lon="5.12885">
        <ele>395.24</ele>
        <time>2017-05-08T12:02:36Z</time>
      </trkpt>
      <trkpt lat="43.96922" lon="5.12886">
        <ele>393.32</ele>
        <time>2017-05-08T12:02:53Z</time>
      </trkpt>
      <trkpt lat="43.96936" lon="5.12883">
        <ele>391.39</ele>
        <time>2017-05-08T12:03:10Z</time>
      </trkpt>
      <trkpt lat="43.96945" lon="5.12877">
        <ele>390.91</ele>
        <time>2017-05-08T12:03:30Z</time>
      </trkpt>
      <trkpt lat="43.96945" lon="5.1287">
        <ele>390.43</ele>
        <time>2017-05-08T12:03:44Z</time>
      </trkpt>
      <trkpt lat="43.96946" lon="5.12871">
        <ele>390.43</ele>
        <time>2017-05-08T12:04:07Z</time>
      </trkpt>
      <trkpt lat="43.96945" lon="5.12872">
        <ele>390.43</ele>
        <time>2017-05-08T12:04:37Z</time>
      </trkpt>
      <trkpt lat="43.96944" lon="5.12862">
        <ele>389.95</ele>
        <time>2017-05-08T12:04:59Z</time>
      </trkpt>
      <trkpt lat="43.9694" lon="5.12842">
        <ele>389.95</ele>
        <time>2017-05-08T12:05:16Z</time>
      </trkpt>
      <trkpt lat="43.96929" lon="5.12829">
        <ele>389.95</ele>
        <time>2017-05-08T12:05:34Z</time>
      </trkpt>
      <trkpt lat="43.96925" lon="5.12818">
        <ele>388.51</ele>
        <time>2017-05-08T12:05:47Z</time>
      </trkpt>
      <trkpt lat="43.9692" lon="5.12804">
        <ele>386.11</ele>
        <time>2017-05-08T12:06:03Z</time>
      </trkpt>
      <trkpt lat="43.96915" lon="5.1279">
        <ele>385.15</ele>
        <time>2017-05-08T12:06:18Z</time>
      </trkpt>
      <trkpt lat="43.96912" lon="5.12777">
        <ele>383.22</ele>
        <time>2017-05-08T12:06:32Z</time>
      </trkpt>
      <trkpt lat="43.96905" lon="5.1276">
        <ele>381.3</ele>
        <time>2017-05-08T12:06:48Z</time>
      </trkpt>
      <trkpt lat="43.96896" lon="5.12749">
        <ele>380.34</ele>
        <time>2017-05-08T12:07:02Z</time>
      </trkpt>
      <trkpt lat="43.96886" lon="5.1274">
        <ele>377.94</ele>
        <time>2017-05-08T12:07:16Z</time>
      </trkpt>
      <trkpt lat="43.96874" lon="5.12733">
        <ele>376.01</ele>
        <time>2017-05-08T12:07:33Z</time>
      </trkpt>
      <trkpt lat="43.96866" lon="5.12725">
        <ele>373.61</ele>
        <time>2017-05-08T12:07:48Z</time>
      </trkpt>
      <trkpt lat="43.96857" lon="5.12722">
        <ele>371.69</ele>
        <time>2017-05-08T12:08:02Z</time>
      </trkpt>
      <trkpt lat="43.96846" lon="5.1272">
        <ele>369.76</ele>
        <time>2017-05-08T12:08:18Z</time>
      </trkpt>
      <trkpt lat="43.9684" lon="5.12713">
        <ele>367.36</ele>
        <time>2017-05-08T12:08:34Z</time>
      </trkpt>
      <trkpt lat="43.96836" lon="5.12702">
        <ele>366.4</ele>
        <time>2017-05-08T12:08:48Z</time>
      </trkpt>
      <trkpt lat="43.96831" lon="5.12685">
        <ele>365.44</ele>
        <time>2017-05-08T12:09:02Z</time>
      </trkpt>
      <trkpt lat="43.96825" lon="5.12664">
        <ele>364.48</ele>
        <time>2017-05-08T12:09:20Z</time>
      </trkpt>
      <trkpt lat="43.96827" lon="5.12653">
        <ele>363.04</ele>
        <time>2017-05-08T12:09:35Z</time>
      </trkpt>
      <trkpt lat="43.96827" lon="5.1265">
        <ele>361.11</ele>
        <time>2017-05-08T12:09:54Z</time>
      </trkpt>
      <trkpt lat="43.96828" lon="5.12648">
        <ele>361.11</ele>
        <time>2017-05-08T12:10:16Z</time>
      </trkpt>
      <trkpt lat="43.96834" lon="5.12633">
        <ele>360.15</ele>
        <time>2017-05-08T12:10:33Z</time>
      </trkpt>
      <trkpt lat="43.96837" lon="5.12619">
        <ele>359.19</ele>
        <time>2017-05-08T12:10:47Z</time>
      </trkpt>
      <trkpt lat="43.96839" lon="5.12603">
        <ele>357.27</ele>
        <time>2017-05-08T12:11:02Z</time>
      </trkpt>
      <trkpt lat="43.9684" lon="5.12582">
        <ele>355.34</ele>
        <time>2017-05-08T12:11:20Z</time>
      </trkpt>
      <trkpt lat="43.96841" lon="5.1256">
        <ele>354.86</ele>
        <time>2017-05-08T12:11:40Z</time>
      </trkpt>
      <trkpt lat="43.9684" lon="5.12538">
        <ele>352.94</ele>
        <time>2017-05-08T12:11:56Z</time>
      </trkpt>
      <trkpt lat="43.9684" lon="5.12518">
        <ele>351.02</ele>
        <time>2017-05-08T12:12:14Z</time>
      </trkpt>
      <trkpt lat="43.9684" lon="5.12501">
        <ele>349.58</ele>
        <time>2017-05-08T12:12:29Z</time>
      </trkpt>
      <trkpt lat="43.96841" lon="5.12483">
        <ele>349.58</ele>
        <time>2017-05-08T12:12:46Z</time>
      </trkpt>
      <trkpt lat="43.96845" lon="5.12463">
        <ele>349.1</ele>
        <time>2017-05-08T12:13:03Z</time>
      </trkpt>
      <trkpt lat="43.96851" lon="5.12441">
        <ele>350.06</ele>
        <time>2017-05-08T12:13:20Z</time>
      </trkpt>
      <trkpt lat="43.96854" lon="5.12429">
        <ele>350.06</ele>
        <time>2017-05-08T12:13:34Z</time>
      </trkpt>
      <trkpt lat="43.96858" lon="5.12412">
        <ele>350.06</ele>
        <time>2017-05-08T12:13:51Z</time>
      </trkpt>
      <trkpt lat="43.96867" lon="5.12399">
        <ele>350.06</ele>
        <time>2017-05-08T12:14:07Z</time>
      </trkpt>
      <trkpt lat="43.9687" lon="5.12394">
        <ele>348.62</ele>
        <time>2017-05-08T12:14:17Z</time>
      </trkpt>
      <trkpt lat="43.9687" lon="5.12393">
        <ele>350.06</ele>
        <time>2017-05-08T12:14:31Z</time>
      </trkpt>
      <trkpt lat="43.96872" lon="5.12383">
        <ele>350.54</ele>
        <time>2017-05-08T12:14:56Z</time>
      </trkpt>
      <trkpt lat="43.96871" lon="5.12383">
        <ele>350.54</ele>
        <time>2017-05-08T12:15:16Z</time>
      </trkpt>
      <trkpt lat="43.96873" lon="5.12382">
        <ele>349.58</ele>
        <time>2017-05-08T12:15:37Z</time>
      </trkpt>
      <trkpt lat="43.96878" lon="5.12381">
        <ele>348.62</ele>
        <time>2017-05-08T12:15:57Z</time>
      </trkpt>
      <trkpt lat="43.96884" lon="5.12377">
        <ele>349.58</ele>
        <time>2017-05-08T12:16:11Z</time>
      </trkpt>
      <trkpt lat="43.96885" lon="5.12377">
        <ele>348.13</ele>
        <time>2017-05-08T12:16:13Z</time>
      </trkpt>
      <trkpt lat="43.96891" lon="5.1237">
        <ele>346.21</ele>
        <time>2017-05-08T12:16:29Z</time>
      </trkpt>
      <trkpt lat="43.96896" lon="5.12363">
        <ele>346.21</ele>
        <time>2017-05-08T12:16:43Z</time>
      </trkpt>
      <trkpt lat="43.96899" lon="5.12355">
        <ele>344.29</ele>
        <time>2017-05-08T12:16:57Z</time>
      </trkpt>
      <trkpt lat="43.96902" lon="5.12349">
        <ele>342.37</ele>
        <time>2017-05-08T12:17:12Z</time>
      </trkpt>
      <trkpt lat="43.96907" lon="5.12338">
        <ele>341.89</ele>
        <time>2017-05-08T12:17:29Z</time>
      </trkpt>
      <trkpt lat="43.96911" lon="5.12329">
        <ele>340.92</ele>
        <time>2017-05-08T12:17:44Z</time>
      </trkpt>
      <trkpt lat="43.96915" lon="5.12315">
        <ele>340.44</ele>
        <time>2017-05-08T12:17:58Z</time>
      </trkpt>
      <trkpt lat="43.96919" lon="5.12303">
        <ele>339.96</ele>
        <time>2017-05-08T12:18:11Z</time>
      </trkpt>
      <trkpt lat="43.96922" lon="5.12288">
        <ele>340.92</ele>
        <time>2017-05-08T12:18:27Z</time>
      </trkpt>
      <trkpt lat="43.96925" lon="5.12277">
        <ele>339.48</ele>
        <time>2017-05-08T12:18:40Z</time>
      </trkpt>
      <trkpt lat="43.96925" lon="5.12275">
        <ele>339</ele>
        <time>2017-05-08T12:18:42Z</time>
      </trkpt>
      <trkpt lat="43.96924" lon="5.12261">
        <ele>339</ele>
        <time>2017-05-08T12:18:53Z</time>
      </trkpt>
      <trkpt lat="43.96925" lon="5.12247">
        <ele>339</ele>
        <time>2017-05-08T12:19:05Z</time>
      </trkpt>
      <trkpt lat="43.96924" lon="5.12232">
        <ele>338.52</ele>
        <time>2017-05-08T12:19:19Z</time>
      </trkpt>
      <trkpt lat="43.96925" lon="5.12212">
        <ele>338.04</ele>
        <time>2017-05-08T12:19:33Z</time>
      </trkpt>
      <trkpt lat="43.96926" lon="5.12199">
        <ele>338.04</ele>
        <time>2017-05-08T12:19:45Z</time>
      </trkpt>
      <trkpt lat="43.96927" lon="5.12185">
        <ele>337.56</ele>
        <time>2017-05-08T12:19:58Z</time>
      </trkpt>
      <trkpt lat="43.96929" lon="5.1217">
        <ele>336.12</ele>
        <time>2017-05-08T12:20:11Z</time>
      </trkpt>
      <trkpt lat="43.96934" lon="5.12153">
        <ele>335.64</ele>
        <time>2017-05-08T12:20:25Z</time>
      </trkpt>
      <trkpt lat="43.96941" lon="5.1214">
        <ele>336.6</ele>
        <time>2017-05-08T12:20:39Z</time>
      </trkpt>
      <trkpt lat="43.96942" lon="5.12139">
        <ele>336.6</ele>
        <time>2017-05-08T12:20:40Z</time>
      </trkpt>
      <trkpt lat="43.96948" lon="5.12121">
        <ele>335.16</ele>
        <time>2017-05-08T12:20:56Z</time>
      </trkpt>
      <trkpt lat="43.96955" lon="5.12106">
        <ele>335.16</ele>
        <time>2017-05-08T12:21:09Z</time>
      </trkpt>
      <trkpt lat="43.96961" lon="5.12093">
        <ele>333.71</ele>
        <time>2017-05-08T12:21:23Z</time>
      </trkpt>
      <trkpt lat="43.96967" lon="5.12081">
        <ele>335.64</ele>
        <time>2017-05-08T12:21:37Z</time>
      </trkpt>
      <trkpt lat="43.9697" lon="5.12078">
        <ele>332.75</ele>
        <time>2017-05-08T12:21:41Z</time>
      </trkpt>
      <trkpt lat="43.96975" lon="5.12074">
        <ele>332.75</ele>
        <time>2017-05-08T12:21:48Z</time>
      </trkpt>
      <trkpt lat="43.96979" lon="5.1207">
        <ele>334.2</ele>
        <time>2017-05-08T12:21:53Z</time>
      </trkpt>
      <trkpt lat="43.96981" lon="5.12068">
        <ele>332.75</ele>
        <time>2017-05-08T12:21:56Z</time>
      </trkpt>
      <trkpt lat="43.96984" lon="5.12065">
        <ele>334.2</ele>
        <time>2017-05-08T12:22:00Z</time>
      </trkpt>
      <trkpt lat="43.96986" lon="5.12062">
        <ele>332.27</ele>
        <time>2017-05-08T12:22:04Z</time>
      </trkpt>
      <trkpt lat="43.96995" lon="5.12051">
        <ele>330.83</ele>
        <time>2017-05-08T12:22:17Z</time>
      </trkpt>
      <trkpt lat="43.97" lon="5.12041">
        <ele>330.83</ele>
        <time>2017-05-08T12:22:28Z</time>
      </trkpt>
      <trkpt lat="43.97002" lon="5.12038">
        <ele>331.79</ele>
        <time>2017-05-08T12:22:32Z</time>
      </trkpt>
      <trkpt lat="43.97004" lon="5.12035">
        <ele>329.87</ele>
        <time>2017-05-08T12:22:36Z</time>
      </trkpt>
      <trkpt lat="43.97011" lon="5.12023">
        <ele>328.43</ele>
        <time>2017-05-08T12:22:49Z</time>
      </trkpt>
      <trkpt lat="43.97015" lon="5.12015">
        <ele>326.5</ele>
        <time>2017-05-08T12:23:03Z</time>
      </trkpt>
      <trkpt lat="43.9702" lon="5.12006">
        <ele>324.58</ele>
        <time>2017-05-08T12:23:16Z</time>
      </trkpt>
      <trkpt lat="43.97024" lon="5.11992">
        <ele>323.14</ele>
        <time>2017-05-08T12:23:32Z</time>
      </trkpt>
      <trkpt lat="43.97027" lon="5.11982">
        <ele>321.7</ele>
        <time>2017-05-08T12:23:47Z</time>
      </trkpt>
      <trkpt lat="43.97032" lon="5.11968">
        <ele>319.78</ele>
        <time>2017-05-08T12:24:04Z</time>
      </trkpt>
      <trkpt lat="43.97038" lon="5.11965">
        <ele>317.85</ele>
        <time>2017-05-08T12:24:19Z</time>
      </trkpt>
      <trkpt lat="43.97048" lon="5.11956">
        <ele>315.45</ele>
        <time>2017-05-08T12:24:34Z</time>
      </trkpt>
      <trkpt lat="43.97057" lon="5.11939">
        <ele>314.01</ele>
        <time>2017-05-08T12:24:48Z</time>
      </trkpt>
      <trkpt lat="43.97057" lon="5.1192">
        <ele>314.49</ele>
        <time>2017-05-08T12:25:03Z</time>
      </trkpt>
      <trkpt lat="43.97057" lon="5.11905">
        <ele>313.53</ele>
        <time>2017-05-08T12:25:18Z</time>
      </trkpt>
      <trkpt lat="43.9706" lon="5.11884">
        <ele>311.6</ele>
        <time>2017-05-08T12:25:36Z</time>
      </trkpt>
      <trkpt lat="43.9706" lon="5.11863">
        <ele>310.16</ele>
        <time>2017-05-08T12:25:52Z</time>
      </trkpt>
      <trkpt lat="43.9706" lon="5.11856">
        <ele>311.12</ele>
        <time>2017-05-08T12:25:57Z</time>
      </trkpt>
      <trkpt lat="43.97064" lon="5.11834">
        <ele>312.57</ele>
        <time>2017-05-08T12:26:15Z</time>
      </trkpt>
      <trkpt lat="43.97066" lon="5.11833">
        <ele>312.09</ele>
        <time>2017-05-08T12:26:31Z</time>
      </trkpt>
      <trkpt lat="43.9707" lon="5.11828">
        <ele>311.6</ele>
        <time>2017-05-08T12:26:46Z</time>
      </trkpt>
      <trkpt lat="43.97082" lon="5.11827">
        <ele>311.6</ele>
        <time>2017-05-08T12:27:02Z</time>
      </trkpt>
      <trkpt lat="43.97096" lon="5.11825">
        <ele>311.12</ele>
        <time>2017-05-08T12:27:20Z</time>
      </trkpt>
      <trkpt lat="43.97105" lon="5.11824">
        <ele>309.68</ele>
        <time>2017-05-08T12:27:30Z</time>
      </trkpt>
      <trkpt lat="43.97123" lon="5.1182">
        <ele>309.68</ele>
        <time>2017-05-08T12:27:49Z</time>
      </trkpt>
      <trkpt lat="43.97131" lon="5.11808">
        <ele>311.12</ele>
        <time>2017-05-08T12:28:03Z</time>
      </trkpt>
      <trkpt lat="43.97139" lon="5.11789">
        <ele>311.12</ele>
        <time>2017-05-08T12:28:19Z</time>
      </trkpt>
      <trkpt lat="43.97144" lon="5.11773">
        <ele>309.68</ele>
        <time>2017-05-08T12:28:32Z</time>
      </trkpt>
      <trkpt lat="43.97145" lon="5.11767">
        <ele>311.12</ele>
        <time>2017-05-08T12:28:38Z</time>
      </trkpt>
      <trkpt lat="43.97145" lon="5.11763">
        <ele>310.16</ele>
        <time>2017-05-08T12:28:51Z</time>
      </trkpt>
      <trkpt lat="43.97145" lon="5.11764">
        <ele>310.16</ele>
        <time>2017-05-08T12:28:52Z</time>
      </trkpt>
      <trkpt lat="43.97154" lon="5.11762">
        <ele>308.72</ele>
        <time>2017-05-08T12:29:07Z</time>
      </trkpt>
      <trkpt lat="43.97159" lon="5.11761">
        <ele>308.72</ele>
        <time>2017-05-08T12:29:13Z</time>
      </trkpt>
      <trkpt lat="43.97172" lon="5.11758">
        <ele>308.72</ele>
        <time>2017-05-08T12:29:29Z</time>
      </trkpt>
      <trkpt lat="43.97182" lon="5.11755">
        <ele>307.28</ele>
        <time>2017-05-08T12:29:42Z</time>
      </trkpt>
      <trkpt lat="43.97189" lon="5.11753">
        <ele>306.8</ele>
        <time>2017-05-08T12:29:55Z</time>
      </trkpt>
      <trkpt lat="43.97198" lon="5.1175">
        <ele>305.36</ele>
        <time>2017-05-08T12:30:08Z</time>
      </trkpt>
      <trkpt lat="43.972" lon="5.11749">
        <ele>304.88</ele>
        <time>2017-05-08T12:30:11Z</time>
      </trkpt>
      <trkpt lat="43.97209" lon="5.11741">
        <ele>303.43</ele>
        <time>2017-05-08T12:30:26Z</time>
      </trkpt>
      <trkpt lat="43.97212" lon="5.11738">
        <ele>303.43</ele>
        <time>2017-05-08T12:30:31Z</time>
      </trkpt>
      <trkpt lat="43.97223" lon="5.11732">
        <ele>303.43</ele>
        <time>2017-05-08T12:30:46Z</time>
      </trkpt>
      <trkpt lat="43.97229" lon="5.11727">
        <ele>301.99</ele>
        <time>2017-05-08T12:30:53Z</time>
      </trkpt>
      <trkpt lat="43.97242" lon="5.11722">
        <ele>301.51</ele>
        <time>2017-05-08T12:31:07Z</time>
      </trkpt>
      <trkpt lat="43.97244" lon="5.11725">
        <ele>300.55</ele>
        <time>2017-05-08T12:31:12Z</time>
      </trkpt>
      <trkpt lat="43.97246" lon="5.11728">
        <ele>300.55</ele>
        <time>2017-05-08T12:31:15Z</time>
      </trkpt>
      <trkpt lat="43.97252" lon="5.11746">
        <ele>299.59</ele>
        <time>2017-05-08T12:31:30Z</time>
      </trkpt>
      <trkpt lat="43.9726" lon="5.11759">
        <ele>297.67</ele>
        <time>2017-05-08T12:31:48Z</time>
      </trkpt>
      <trkpt lat="43.97268" lon="5.11774">
        <ele>297.67</ele>
        <time>2017-05-08T12:32:02Z</time>
      </trkpt>
      <trkpt lat="43.97272" lon="5.11777">
        <ele>298.63</ele>
        <time>2017-05-08T12:32:16Z</time>
      </trkpt>
      <trkpt lat="43.97272" lon="5.11785">
        <ele>299.11</ele>
        <time>2017-05-08T12:32:35Z</time>
      </trkpt>
      <trkpt lat="43.97271" lon="5.11785">
        <ele>298.15</ele>
        <time>2017-05-08T12:32:55Z</time>
      </trkpt>
      <trkpt lat="43.97272" lon="5.11788">
        <ele>299.11</ele>
        <time>2017-05-08T12:33:19Z</time>
      </trkpt>
      <trkpt lat="43.97278" lon="5.11786">
        <ele>299.59</ele>
        <time>2017-05-08T12:33:28Z</time>
      </trkpt>
      <trkpt lat="43.9729" lon="5.11788">
        <ele>299.59</ele>
        <time>2017-05-08T12:33:45Z</time>
      </trkpt>
      <trkpt lat="43.97299" lon="5.11796">
        <ele>301.51</ele>
        <time>2017-05-08T12:34:00Z</time>
      </trkpt>
      <trkpt lat="43.97308" lon="5.11803">
        <ele>302.95</ele>
        <time>2017-05-08T12:34:13Z</time>
      </trkpt>
      <trkpt lat="43.97319" lon="5.11809">
        <ele>304.88</ele>
        <time>2017-05-08T12:34:28Z</time>
      </trkpt>
      <trkpt lat="43.97326" lon="5.11823">
        <ele>306.32</ele>
        <time>2017-05-08T12:34:44Z</time>
      </trkpt>
      <trkpt lat="43.97327" lon="5.11835">
        <ele>308.24</ele>
        <time>2017-05-08T12:34:59Z</time>
      </trkpt>
      <trkpt lat="43.97324" lon="5.11848">
        <ele>309.68</ele>
        <time>2017-05-08T12:35:12Z</time>
      </trkpt>
      <trkpt lat="43.9732" lon="5.11858">
        <ele>310.64</ele>
        <time>2017-05-08T12:35:26Z</time>
      </trkpt>
      <trkpt lat="43.9732" lon="5.11862">
        <ele>310.64</ele>
        <time>2017-05-08T12:35:35Z</time>
      </trkpt>
      <trkpt lat="43.97323" lon="5.11872">
        <ele>310.64</ele>
        <time>2017-05-08T12:35:50Z</time>
      </trkpt>
      <trkpt lat="43.97323" lon="5.11858">
        <ele>312.57</ele>
        <time>2017-05-08T12:36:10Z</time>
      </trkpt>
      <trkpt lat="43.97327" lon="5.11853">
        <ele>314.01</ele>
        <time>2017-05-08T12:36:23Z</time>
      </trkpt>
      <trkpt lat="43.9733" lon="5.11852">
        <ele>314.49</ele>
        <time>2017-05-08T12:36:44Z</time>
      </trkpt>
      <trkpt lat="43.97338" lon="5.11837">
        <ele>314.49</ele>
        <time>2017-05-08T12:36:58Z</time>
      </trkpt>
      <trkpt lat="43.97345" lon="5.1183">
        <ele>316.89</ele>
        <time>2017-05-08T12:37:12Z</time>
      </trkpt>
      <trkpt lat="43.97355" lon="5.11829">
        <ele>317.85</ele>
        <time>2017-05-08T12:37:26Z</time>
      </trkpt>
      <trkpt lat="43.97359" lon="5.11826">
        <ele>318.33</ele>
        <time>2017-05-08T12:37:30Z</time>
      </trkpt>
      <trkpt lat="43.97371" lon="5.11821">
        <ele>319.78</ele>
        <time>2017-05-08T12:37:44Z</time>
      </trkpt>
      <trkpt lat="43.97382" lon="5.11814">
        <ele>320.26</ele>
        <time>2017-05-08T12:38:00Z</time>
      </trkpt>
      <trkpt lat="43.97385" lon="5.11806">
        <ele>320.74</ele>
        <time>2017-05-08T12:38:17Z</time>
      </trkpt>
      <trkpt lat="43.97388" lon="5.11807">
        <ele>321.7</ele>
        <time>2017-05-08T12:38:34Z</time>
      </trkpt>
      <trkpt lat="43.97393" lon="5.11817">
        <ele>323.62</ele>
        <time>2017-05-08T12:38:52Z</time>
      </trkpt>
      <trkpt lat="43.97397" lon="5.11818">
        <ele>324.1</ele>
        <time>2017-05-08T12:39:09Z</time>
      </trkpt>
      <trkpt lat="43.97394" lon="5.11826">
        <ele>325.54</ele>
        <time>2017-05-08T12:39:31Z</time>
      </trkpt>
      <trkpt lat="43.97388" lon="5.11838">
        <ele>326.5</ele>
        <time>2017-05-08T12:39:46Z</time>
      </trkpt>
      <trkpt lat="43.97383" lon="5.11847">
        <ele>328.43</ele>
        <time>2017-05-08T12:40:01Z</time>
      </trkpt>
      <trkpt lat="43.97382" lon="5.11853">
        <ele>328.91</ele>
        <time>2017-05-08T12:40:25Z</time>
      </trkpt>
      <trkpt lat="43.97382" lon="5.11853">
        <ele>328.91</ele>
        <time>2017-05-08T12:40:47Z</time>
      </trkpt>
      <trkpt lat="43.97381" lon="5.11853">
        <ele>327.47</ele>
        <time>2017-05-08T12:40:50Z</time>
      </trkpt>
      <trkpt lat="43.97381" lon="5.1185">
        <ele>327.47</ele>
        <time>2017-05-08T12:41:07Z</time>
      </trkpt>
      <trkpt lat="43.97381" lon="5.11845">
        <ele>328.43</ele>
        <time>2017-05-08T12:41:23Z</time>
      </trkpt>
      <trkpt lat="43.97383" lon="5.11845">
        <ele>328.43</ele>
        <time>2017-05-08T12:41:43Z</time>
      </trkpt>
      <trkpt lat="43.97383" lon="5.11846">
        <ele>327.95</ele>
        <time>2017-05-08T12:41:58Z</time>
      </trkpt>
      <trkpt lat="43.97385" lon="5.11845">
        <ele>327.95</ele>
        <time>2017-05-08T12:42:14Z</time>
      </trkpt>
      <trkpt lat="43.97386" lon="5.11844">
        <ele>329.39</ele>
        <time>2017-05-08T12:42:19Z</time>
      </trkpt>
      <trkpt lat="43.9739" lon="5.11843">
        <ele>331.31</ele>
        <time>2017-05-08T12:42:33Z</time>
      </trkpt>
      <trkpt lat="43.97398" lon="5.11837">
        <ele>333.23</ele>
        <time>2017-05-08T12:42:49Z</time>
      </trkpt>
      <trkpt lat="43.97403" lon="5.11834">
        <ele>335.64</ele>
        <time>2017-05-08T12:43:05Z</time>
      </trkpt>
      <trkpt lat="43.97411" lon="5.11834">
        <ele>337.08</ele>
        <time>2017-05-08T12:43:19Z</time>
      </trkpt>
      <trkpt lat="43.97419" lon="5.11836">
        <ele>338.52</ele>
        <time>2017-05-08T12:43:33Z</time>
      </trkpt>
      <trkpt lat="43.97424" lon="5.11832">
        <ele>339</ele>
        <time>2017-05-08T12:43:48Z</time>
      </trkpt>
      <trkpt lat="43.97425" lon="5.11832">
        <ele>339</ele>
        <time>2017-05-08T12:43:49Z</time>
      </trkpt>
      <trkpt lat="43.97425" lon="5.1183">
        <ele>341.89</ele>
        <time>2017-05-08T12:43:56Z</time>
      </trkpt>
      <trkpt lat="43.97425" lon="5.11829">
        <ele>339.48</ele>
        <time>2017-05-08T12:43:59Z</time>
      </trkpt>
      <trkpt lat="43.9743" lon="5.1183">
        <ele>339.48</ele>
        <time>2017-05-08T12:44:18Z</time>
      </trkpt>
      <trkpt lat="43.9743" lon="5.11832">
        <ele>339.48</ele>
        <time>2017-05-08T12:44:36Z</time>
      </trkpt>
      <trkpt lat="43.97432" lon="5.11833">
        <ele>340.44</ele>
        <time>2017-05-08T12:44:55Z</time>
      </trkpt>
      <trkpt lat="43.97431" lon="5.11831">
        <ele>340.92</ele>
        <time>2017-05-08T12:45:15Z</time>
      </trkpt>
      <trkpt lat="43.97431" lon="5.1183">
        <ele>339.48</ele>
        <time>2017-05-08T12:45:22Z</time>
      </trkpt>
      <trkpt lat="43.97431" lon="5.11832">
        <ele>340.92</ele>
        <time>2017-05-08T12:45:30Z</time>
      </trkpt>
      <trkpt lat="43.97435" lon="5.11835">
        <ele>340.92</ele>
        <time>2017-05-08T12:45:49Z</time>
      </trkpt>
      <trkpt lat="43.97435" lon="5.11839">
        <ele>341.41</ele>
        <time>2017-05-08T12:46:11Z</time>
      </trkpt>
      <trkpt lat="43.97436" lon="5.1184">
        <ele>339.48</ele>
        <time>2017-05-08T12:46:15Z</time>
      </trkpt>
      <trkpt lat="43.97436" lon="5.11841">
        <ele>341.41</ele>
        <time>2017-05-08T12:46:29Z</time>
      </trkpt>
      <trkpt lat="43.97439" lon="5.11858">
        <ele>341.41</ele>
        <time>2017-05-08T12:46:48Z</time>
      </trkpt>
      <trkpt lat="43.97447" lon="5.11876">
        <ele>342.37</ele>
        <time>2017-05-08T12:47:05Z</time>
      </trkpt>
      <trkpt lat="43.97463" lon="5.11882">
        <ele>343.81</ele>
        <time>2017-05-08T12:47:25Z</time>
      </trkpt>
      <trkpt lat="43.97478" lon="5.1189">
        <ele>345.25</ele>
        <time>2017-05-08T12:47:45Z</time>
      </trkpt>
      <trkpt lat="43.97491" lon="5.119">
        <ele>345.73</ele>
        <time>2017-05-08T12:48:02Z</time>
      </trkpt>
      <trkpt lat="43.97507" lon="5.11905">
        <ele>347.65</ele>
        <time>2017-05-08T12:48:21Z</time>
      </trkpt>
      <trkpt lat="43.97521" lon="5.11908">
        <ele>346.21</ele>
        <time>2017-05-08T12:48:37Z</time>
      </trkpt>
      <trkpt lat="43.97529" lon="5.11908">
        <ele>347.65</ele>
        <time>2017-05-08T12:48:45Z</time>
      </trkpt>
      <trkpt lat="43.97551" lon="5.11912">
        <ele>346.21</ele>
        <time>2017-05-08T12:49:07Z</time>
      </trkpt>
      <trkpt lat="43.97557" lon="5.11912">
        <ele>347.65</ele>
        <time>2017-05-08T12:49:13Z</time>
      </trkpt>
      <trkpt lat="43.97577" lon="5.11917">
        <ele>346.21</ele>
        <time>2017-05-08T12:49:34Z</time>
      </trkpt>
      <trkpt lat="43.97585" lon="5.11918">
        <ele>344.77</ele>
        <time>2017-05-08T12:49:42Z</time>
      </trkpt>
      <trkpt lat="43.97598" lon="5.11919">
        <ele>347.65</ele>
        <time>2017-05-08T12:49:56Z</time>
      </trkpt>
      <trkpt lat="43.976" lon="5.11919">
        <ele>345.73</ele>
        <time>2017-05-08T12:49:58Z</time>
      </trkpt>
      <trkpt lat="43.97604" lon="5.1192">
        <ele>347.17</ele>
        <time>2017-05-08T12:50:02Z</time>
      </trkpt>
      <trkpt lat="43.97605" lon="5.1192">
        <ele>345.25</ele>
        <time>2017-05-08T12:50:04Z</time>
      </trkpt>
      <trkpt lat="43.97622" lon="5.11923">
        <ele>341.89</ele>
        <time>2017-05-08T12:50:22Z</time>
      </trkpt>
      <trkpt lat="43.97626" lon="5.11924">
        <ele>342.85</ele>
        <time>2017-05-08T12:50:27Z</time>
      </trkpt>
      <trkpt lat="43.97648" lon="5.11923">
        <ele>341.89</ele>
        <time>2017-05-08T12:50:50Z</time>
      </trkpt>
      <trkpt lat="43.9767" lon="5.11921">
        <ele>340.44</ele>
        <time>2017-05-08T12:51:13Z</time>
      </trkpt>
      <trkpt lat="43.97674" lon="5.11925">
        <ele>341.41</ele>
        <time>2017-05-08T12:51:18Z</time>
      </trkpt>
      <trkpt lat="43.97675" lon="5.11925">
        <ele>341.41</ele>
        <time>2017-05-08T12:51:19Z</time>
      </trkpt>
      <trkpt lat="43.97693" lon="5.11942">
        <ele>341.41</ele>
        <time>2017-05-08T12:51:42Z</time>
      </trkpt>
      <trkpt lat="43.97707" lon="5.11957">
        <ele>339</ele>
        <time>2017-05-08T12:52:00Z</time>
      </trkpt>
      <trkpt lat="43.97719" lon="5.11967">
        <ele>337.56</ele>
        <time>2017-05-08T12:52:16Z</time>
      </trkpt>
      <trkpt lat="43.97737" lon="5.1197">
        <ele>335.64</ele>
        <time>2017-05-08T12:52:34Z</time>
      </trkpt>
      <trkpt lat="43.9774" lon="5.11969">
        <ele>335.64</ele>
        <time>2017-05-08T12:52:38Z</time>
      </trkpt>
      <trkpt lat="43.97761" lon="5.11968">
        <ele>333.71</ele>
        <time>2017-05-08T12:52:59Z</time>
      </trkpt>
      <trkpt lat="43.97766" lon="5.11966">
        <ele>335.16</ele>
        <time>2017-05-08T12:53:04Z</time>
      </trkpt>
      <trkpt lat="43.97777" lon="5.11965">
        <ele>331.79</ele>
        <time>2017-05-08T12:53:17Z</time>
      </trkpt>
      <trkpt lat="43.97782" lon="5.11978">
        <ele>329.87</ele>
        <time>2017-05-08T12:53:34Z</time>
      </trkpt>
      <trkpt lat="43.97787" lon="5.11996">
        <ele>327.95</ele>
        <time>2017-05-08T12:53:53Z</time>
      </trkpt>
      <trkpt lat="43.97797" lon="5.12013">
        <ele>326.99</ele>
        <time>2017-05-08T12:54:12Z</time>
      </trkpt>
      <trkpt lat="43.97798" lon="5.12015">
        <ele>325.54</ele>
        <time>2017-05-08T12:54:15Z</time>
      </trkpt>
      <trkpt lat="43.97802" lon="5.12033">
        <ele>323.62</ele>
        <time>2017-05-08T12:54:32Z</time>
      </trkpt>
      <trkpt lat="43.97807" lon="5.1205">
        <ele>321.22</ele>
        <time>2017-05-08T12:54:49Z</time>
      </trkpt>
      <trkpt lat="43.97813" lon="5.12066">
        <ele>320.74</ele>
        <time>2017-05-08T12:55:04Z</time>
      </trkpt>
      <trkpt lat="43.97816" lon="5.12075">
        <ele>320.74</ele>
        <time>2017-05-08T12:55:11Z</time>
      </trkpt>
      <trkpt lat="43.9782" lon="5.12088">
        <ele>317.37</ele>
        <time>2017-05-08T12:55:23Z</time>
      </trkpt>
      <trkpt lat="43.97827" lon="5.12108">
        <ele>316.41</ele>
        <time>2017-05-08T12:55:43Z</time>
      </trkpt>
      <trkpt lat="43.97832" lon="5.12123">
        <ele>314.01</ele>
        <time>2017-05-08T12:55:58Z</time>
      </trkpt>
      <trkpt lat="43.97835" lon="5.1213">
        <ele>312.09</ele>
        <time>2017-05-08T12:56:05Z</time>
      </trkpt>
      <trkpt lat="43.97842" lon="5.12145">
        <ele>309.68</ele>
        <time>2017-05-08T12:56:21Z</time>
      </trkpt>
      <trkpt lat="43.97849" lon="5.12163">
        <ele>309.2</ele>
        <time>2017-05-08T12:56:37Z</time>
      </trkpt>
      <trkpt lat="43.9786" lon="5.12182">
        <ele>308.72</ele>
        <time>2017-05-08T12:56:53Z</time>
      </trkpt>
      <trkpt lat="43.97863" lon="5.12184">
        <ele>308.72</ele>
        <time>2017-05-08T12:56:56Z</time>
      </trkpt>
      <trkpt lat="43.97884" lon="5.12191">
        <ele>308.72</ele>
        <time>2017-05-08T12:57:17Z</time>
      </trkpt>
      <trkpt lat="43.979" lon="5.12187">
        <ele>308.72</ele>
        <time>2017-05-08T12:57:36Z</time>
      </trkpt>
      <trkpt lat="43.97913" lon="5.1218">
        <ele>307.76</ele>
        <time>2017-05-08T12:57:52Z</time>
      </trkpt>
      <trkpt lat="43.97925" lon="5.12169">
        <ele>307.76</ele>
        <time>2017-05-08T12:58:08Z</time>
      </trkpt>
      <trkpt lat="43.97941" lon="5.12154">
        <ele>307.76</ele>
        <time>2017-05-08T12:58:25Z</time>
      </trkpt>
      <trkpt lat="43.97957" lon="5.12133">
        <ele>307.76</ele>
        <time>2017-05-08T12:58:44Z</time>
      </trkpt>
      <trkpt lat="43.97965" lon="5.12127">
        <ele>306.8</ele>
        <time>2017-05-08T12:58:58Z</time>
      </trkpt>
      <trkpt lat="43.9798" lon="5.12117">
        <ele>306.8</ele>
        <time>2017-05-08T12:59:15Z</time>
      </trkpt>
      <trkpt lat="43.97994" lon="5.12106">
        <ele>304.88</ele>
        <time>2017-05-08T12:59:33Z</time>
      </trkpt>
      <trkpt lat="43.98006" lon="5.12095">
        <ele>302.47</ele>
        <time>2017-05-08T12:59:50Z</time>
      </trkpt>
      <trkpt lat="43.98015" lon="5.12086">
        <ele>301.99</ele>
        <time>2017-05-08T13:00:06Z</time>
      </trkpt>
      <trkpt lat="43.98021" lon="5.12082">
        <ele>298.63</ele>
        <time>2017-05-08T13:00:14Z</time>
      </trkpt>
      <trkpt lat="43.98024" lon="5.1208">
        <ele>300.07</ele>
        <time>2017-05-08T13:00:17Z</time>
      </trkpt>
      <trkpt lat="43.98038" lon="5.12072">
        <ele>296.7</ele>
        <time>2017-05-08T13:00:37Z</time>
      </trkpt>
      <trkpt lat="43.9805" lon="5.12067">
        <ele>295.26</ele>
        <time>2017-05-08T13:00:54Z</time>
      </trkpt>
      <trkpt lat="43.98057" lon="5.12064">
        <ele>293.34</ele>
        <time>2017-05-08T13:01:06Z</time>
      </trkpt>
      <trkpt lat="43.98067" lon="5.12058">
        <ele>291.9</ele>
        <time>2017-05-08T13:01:23Z</time>
      </trkpt>
      <trkpt lat="43.98075" lon="5.12057">
        <ele>288.53</ele>
        <time>2017-05-08T13:01:38Z</time>
      </trkpt>
      <trkpt lat="43.98075" lon="5.12057">
        <ele>288.53</ele>
        <time>2017-05-08T13:01:39Z</time>
      </trkpt>
      <trkpt lat="43.98086" lon="5.12055">
        <ele>287.09</ele>
        <time>2017-05-08T13:01:54Z</time>
      </trkpt>
      <trkpt lat="43.98096" lon="5.12046">
        <ele>284.21</ele>
        <time>2017-05-08T13:02:08Z</time>
      </trkpt>
      <trkpt lat="43.98107" lon="5.12035">
        <ele>283.25</ele>
        <time>2017-05-08T13:02:26Z</time>
      </trkpt>
      <trkpt lat="43.98115" lon="5.12033">
        <ele>281.8</ele>
        <time>2017-05-08T13:02:42Z</time>
      </trkpt>
      <trkpt lat="43.98125" lon="5.12031">
        <ele>279.4</ele>
        <time>2017-05-08T13:02:56Z</time>
      </trkpt>
      <trkpt lat="43.98138" lon="5.12027">
        <ele>277.96</ele>
        <time>2017-05-08T13:03:14Z</time>
      </trkpt>
      <trkpt lat="43.98147" lon="5.12022">
        <ele>276.04</ele>
        <time>2017-05-08T13:03:29Z</time>
      </trkpt>
      <trkpt lat="43.98154" lon="5.12014">
        <ele>274.11</ele>
        <time>2017-05-08T13:03:43Z</time>
      </trkpt>
      <trkpt lat="43.98168" lon="5.12006">
        <ele>271.71</ele>
        <time>2017-05-08T13:04:02Z</time>
      </trkpt>
      <trkpt lat="43.98177" lon="5.12">
        <ele>270.27</ele>
        <time>2017-05-08T13:04:17Z</time>
      </trkpt>
      <trkpt lat="43.98184" lon="5.11993">
        <ele>268.35</ele>
        <time>2017-05-08T13:04:31Z</time>
      </trkpt>
      <trkpt lat="43.98194" lon="5.11984">
        <ele>267.86</ele>
        <time>2017-05-08T13:04:45Z</time>
      </trkpt>
      <trkpt lat="43.98202" lon="5.11978">
        <ele>267.86</ele>
        <time>2017-05-08T13:04:59Z</time>
      </trkpt>
      <trkpt lat="43.98216" lon="5.11969">
        <ele>266.9</ele>
        <time>2017-05-08T13:05:16Z</time>
      </trkpt>
      <trkpt lat="43.98225" lon="5.11958">
        <ele>265.94</ele>
        <time>2017-05-08T13:05:29Z</time>
      </trkpt>
      <trkpt lat="43.98232" lon="5.11951">
        <ele>265.94</ele>
        <time>2017-05-08T13:05:42Z</time>
      </trkpt>
      <trkpt lat="43.98245" lon="5.11942">
        <ele>264.98</ele>
        <time>2017-05-08T13:06:01Z</time>
      </trkpt>
      <trkpt lat="43.98253" lon="5.11942">
        <ele>264.98</ele>
        <time>2017-05-08T13:06:16Z</time>
      </trkpt>
      <trkpt lat="43.98259" lon="5.11944">
        <ele>266.42</ele>
        <time>2017-05-08T13:06:23Z</time>
      </trkpt>
      <trkpt lat="43.9827" lon="5.11941">
        <ele>266.9</ele>
        <time>2017-05-08T13:06:41Z</time>
      </trkpt>
      <trkpt lat="43.98278" lon="5.11942">
        <ele>268.83</ele>
        <time>2017-05-08T13:06:58Z</time>
      </trkpt>
      <trkpt lat="43.98284" lon="5.11938">
        <ele>269.79</ele>
        <time>2017-05-08T13:07:12Z</time>
      </trkpt>
      <trkpt lat="43.983" lon="5.1193">
        <ele>268.83</ele>
        <time>2017-05-08T13:07:28Z</time>
      </trkpt>
      <trkpt lat="43.98304" lon="5.11931">
        <ele>270.27</ele>
        <time>2017-05-08T13:07:33Z</time>
      </trkpt>
      <trkpt lat="43.98315" lon="5.1193">
        <ele>270.75</ele>
        <time>2017-05-08T13:07:47Z</time>
      </trkpt>
      <trkpt lat="43.98326" lon="5.11919">
        <ele>272.19</ele>
        <time>2017-05-08T13:08:01Z</time>
      </trkpt>
      <trkpt lat="43.98332" lon="5.1191">
        <ele>272.67</ele>
        <time>2017-05-08T13:08:10Z</time>
      </trkpt>
      <trkpt lat="43.98345" lon="5.11907">
        <ele>271.71</ele>
        <time>2017-05-08T13:08:26Z</time>
      </trkpt>
      <trkpt lat="43.9836" lon="5.11935">
        <ele>271.71</ele>
        <time>2017-05-08T13:08:41Z</time>
      </trkpt>
      <trkpt lat="43.98362" lon="5.11951">
        <ele>273.15</ele>
        <time>2017-05-08T13:08:57Z</time>
      </trkpt>
      <trkpt lat="43.98366" lon="5.11953">
        <ele>271.71</ele>
        <time>2017-05-08T13:09:04Z</time>
      </trkpt>
      <trkpt lat="43.98369" lon="5.1195">
        <ele>270.27</ele>
        <time>2017-05-08T13:09:24Z</time>
      </trkpt>
      <trkpt lat="43.98377" lon="5.11953">
        <ele>268.83</ele>
        <time>2017-05-08T13:09:33Z</time>
      </trkpt>
      <trkpt lat="43.98389" lon="5.11944">
        <ele>267.86</ele>
        <time>2017-05-08T13:09:50Z</time>
      </trkpt>
      <trkpt lat="43.98394" lon="5.11944">
        <ele>266.9</ele>
        <time>2017-05-08T13:10:11Z</time>
      </trkpt>
      <trkpt lat="43.98402" lon="5.11949">
        <ele>264.5</ele>
        <time>2017-05-08T13:10:32Z</time>
      </trkpt>
      <trkpt lat="43.98407" lon="5.11959">
        <ele>262.1</ele>
        <time>2017-05-08T13:10:51Z</time>
      </trkpt>
      <trkpt lat="43.98414" lon="5.11968">
        <ele>258.73</ele>
        <time>2017-05-08T13:11:07Z</time>
      </trkpt>
      <trkpt lat="43.98414" lon="5.11969">
        <ele>258.25</ele>
        <time>2017-05-08T13:11:09Z</time>
      </trkpt>
      <trkpt lat="43.98416" lon="5.11971">
        <ele>259.21</ele>
        <time>2017-05-08T13:11:16Z</time>
      </trkpt>
      <trkpt lat="43.98418" lon="5.11962">
        <ele>260.65</ele>
        <time>2017-05-08T13:11:32Z</time>
      </trkpt>
      <trkpt lat="43.98414" lon="5.11946">
        <ele>260.65</ele>
        <time>2017-05-08T13:11:49Z</time>
      </trkpt>
      <trkpt lat="43.98401" lon="5.11928">
        <ele>260.65</ele>
        <time>2017-05-08T13:12:07Z</time>
      </trkpt>
      <trkpt lat="43.98388" lon="5.11916">
        <ele>261.14</ele>
        <time>2017-05-08T13:12:24Z</time>
      </trkpt>
      <trkpt lat="43.9837" lon="5.11914">
        <ele>261.14</ele>
        <time>2017-05-08T13:12:41Z</time>
      </trkpt>
      <trkpt lat="43.98361" lon="5.11914">
        <ele>261.62</ele>
        <time>2017-05-08T13:12:51Z</time>
      </trkpt>
      <trkpt lat="43.98347" lon="5.11915">
        <ele>261.62</ele>
        <time>2017-05-08T13:13:10Z</time>
      </trkpt>
      <trkpt lat="43.98346" lon="5.11915">
        <ele>260.17</ele>
        <time>2017-05-08T13:13:13Z</time>
      </trkpt>
      <trkpt lat="43.98331" lon="5.11919">
        <ele>258.73</ele>
        <time>2017-05-08T13:13:33Z</time>
      </trkpt>
      <trkpt lat="43.98319" lon="5.1192">
        <ele>257.29</ele>
        <time>2017-05-08T13:13:50Z</time>
      </trkpt>
      <trkpt lat="43.98318" lon="5.11919">
        <ele>255.85</ele>
        <time>2017-05-08T13:13:53Z</time>
      </trkpt>
      <trkpt lat="43.98323" lon="5.11918">
        <ele>257.77</ele>
        <time>2017-05-08T13:14:10Z</time>
      </trkpt>
      <trkpt lat="43.98325" lon="5.11918">
        <ele>255.85</ele>
        <time>2017-05-08T13:14:14Z</time>
      </trkpt>
      <trkpt lat="43.98334" lon="5.11913">
        <ele>255.37</ele>
        <time>2017-05-08T13:14:32Z</time>
      </trkpt>
      <trkpt lat="43.98339" lon="5.11912">
        <ele>254.41</ele>
        <time>2017-05-08T13:14:49Z</time>
      </trkpt>
      <trkpt lat="43.98342" lon="5.11913">
        <ele>255.37</ele>
        <time>2017-05-08T13:15:08Z</time>
      </trkpt>
    </trkseg>
  </trk>
</gpx>